<?xml version="1.0" encoding="UTF-8" standalone="no" ?>
<gpx xmlns="http://www.topografix.com/GPX/1/1" xmlns:xsi="http://www.w3.org/2001/XMLSchema-instance" xsi:schemaLocation="http://www.topografix.com/GPX/1/1 http://www.topografix.com/GPX/1/1/gpx.xsd" version="1.1" creator="VisuGPX - https://www.visugpx.com">
  <metadata>
    <name>L Aulp Du Seuil</name>
    <desc><![CDATA[grp_trc:[nouvelles]]]></desc>
  </metadata>
  <trk>
    <name><![CDATA[31 juil. 2021 à 09:20:43]]></name>
    <cmt><![CDATA[31 juil. 2021 à 09:20:43]]></cmt>
    <trkseg>
      <trkpt lat="45.46181" lon="5.90555">
        <ele>1121</ele>
        <time>2021-07-31T07:20:43Z</time>
      </trkpt>
      <trkpt lat="45.4618" lon="5.90556">
        <ele>1122</ele>
        <time>2021-07-31T07:20:44Z</time>
      </trkpt>
      <trkpt lat="45.46174" lon="5.90522">
        <ele>1121</ele>
        <time>2021-07-31T07:20:51Z</time>
      </trkpt>
      <trkpt lat="45.46166" lon="5.90529">
        <ele>1128</ele>
        <time>2021-07-31T07:21:23Z</time>
      </trkpt>
      <trkpt lat="45.46153" lon="5.90526">
        <ele>1132</ele>
        <time>2021-07-31T07:21:39Z</time>
      </trkpt>
      <trkpt lat="45.46148" lon="5.90529">
        <ele>1132</ele>
        <time>2021-07-31T07:21:43Z</time>
      </trkpt>
      <trkpt lat="45.46139" lon="5.90529">
        <ele>1135</ele>
        <time>2021-07-31T07:21:57Z</time>
      </trkpt>
      <trkpt lat="45.46122" lon="5.90522">
        <ele>1138</ele>
        <time>2021-07-31T07:22:13Z</time>
      </trkpt>
      <trkpt lat="45.46105" lon="5.90508">
        <ele>1140</ele>
        <time>2021-07-31T07:22:29Z</time>
      </trkpt>
      <trkpt lat="45.46091" lon="5.90505">
        <ele>1140</ele>
        <time>2021-07-31T07:22:40Z</time>
      </trkpt>
      <trkpt lat="45.46079" lon="5.905">
        <ele>1141</ele>
        <time>2021-07-31T07:22:49Z</time>
      </trkpt>
      <trkpt lat="45.46073" lon="5.90494">
        <ele>1142</ele>
        <time>2021-07-31T07:22:53Z</time>
      </trkpt>
      <trkpt lat="45.46072" lon="5.9049">
        <ele>1142</ele>
        <time>2021-07-31T07:22:56Z</time>
      </trkpt>
      <trkpt lat="45.4607" lon="5.90484">
        <ele>1143</ele>
        <time>2021-07-31T07:23:00Z</time>
      </trkpt>
      <trkpt lat="45.46064" lon="5.90473">
        <ele>1143</ele>
        <time>2021-07-31T07:23:06Z</time>
      </trkpt>
      <trkpt lat="45.4606" lon="5.90465">
        <ele>1143</ele>
        <time>2021-07-31T07:23:09Z</time>
      </trkpt>
      <trkpt lat="45.46055" lon="5.90461">
        <ele>1143</ele>
        <time>2021-07-31T07:23:15Z</time>
      </trkpt>
      <trkpt lat="45.46044" lon="5.90469">
        <ele>1145</ele>
        <time>2021-07-31T07:23:23Z</time>
      </trkpt>
      <trkpt lat="45.46037" lon="5.90476">
        <ele>1145</ele>
        <time>2021-07-31T07:23:26Z</time>
      </trkpt>
      <trkpt lat="45.46018" lon="5.90504">
        <ele>1149</ele>
        <time>2021-07-31T07:23:51Z</time>
      </trkpt>
      <trkpt lat="45.46015" lon="5.90507">
        <ele>1150</ele>
        <time>2021-07-31T07:23:55Z</time>
      </trkpt>
      <trkpt lat="45.46012" lon="5.90521">
        <ele>1152</ele>
        <time>2021-07-31T07:24:04Z</time>
      </trkpt>
      <trkpt lat="45.46007" lon="5.9053">
        <ele>1154</ele>
        <time>2021-07-31T07:24:12Z</time>
      </trkpt>
      <trkpt lat="45.46001" lon="5.90541">
        <ele>1157</ele>
        <time>2021-07-31T07:24:26Z</time>
      </trkpt>
      <trkpt lat="45.46001" lon="5.90549">
        <ele>1158</ele>
        <time>2021-07-31T07:24:33Z</time>
      </trkpt>
      <trkpt lat="45.45999" lon="5.90558">
        <ele>1161</ele>
        <time>2021-07-31T07:24:43Z</time>
      </trkpt>
      <trkpt lat="45.45996" lon="5.90565">
        <ele>1163</ele>
        <time>2021-07-31T07:24:51Z</time>
      </trkpt>
      <trkpt lat="45.45981" lon="5.90582">
        <ele>1168</ele>
        <time>2021-07-31T07:25:14Z</time>
      </trkpt>
      <trkpt lat="45.45976" lon="5.90577">
        <ele>1169</ele>
        <time>2021-07-31T07:25:19Z</time>
      </trkpt>
      <trkpt lat="45.4597" lon="5.9058">
        <ele>1169</ele>
        <time>2021-07-31T07:25:23Z</time>
      </trkpt>
      <trkpt lat="45.45967" lon="5.90584">
        <ele>1169</ele>
        <time>2021-07-31T07:25:26Z</time>
      </trkpt>
      <trkpt lat="45.45964" lon="5.90588">
        <ele>1170</ele>
        <time>2021-07-31T07:25:30Z</time>
      </trkpt>
      <trkpt lat="45.45952" lon="5.90609">
        <ele>1174</ele>
        <time>2021-07-31T07:25:54Z</time>
      </trkpt>
      <trkpt lat="45.45943" lon="5.90621">
        <ele>1175</ele>
        <time>2021-07-31T07:26:03Z</time>
      </trkpt>
      <trkpt lat="45.45938" lon="5.90625">
        <ele>1176</ele>
        <time>2021-07-31T07:26:08Z</time>
      </trkpt>
      <trkpt lat="45.4593" lon="5.90636">
        <ele>1179</ele>
        <time>2021-07-31T07:26:19Z</time>
      </trkpt>
      <trkpt lat="45.4593" lon="5.9065">
        <ele>1182</ele>
        <time>2021-07-31T07:26:34Z</time>
      </trkpt>
      <trkpt lat="45.45937" lon="5.90665">
        <ele>1187</ele>
        <time>2021-07-31T07:26:53Z</time>
      </trkpt>
      <trkpt lat="45.45936" lon="5.90689">
        <ele>1191</ele>
        <time>2021-07-31T07:27:10Z</time>
      </trkpt>
      <trkpt lat="45.45933" lon="5.90699">
        <ele>1193</ele>
        <time>2021-07-31T07:27:21Z</time>
      </trkpt>
      <trkpt lat="45.45933" lon="5.90705">
        <ele>1194</ele>
        <time>2021-07-31T07:27:25Z</time>
      </trkpt>
      <trkpt lat="45.45936" lon="5.90711">
        <ele>1195</ele>
        <time>2021-07-31T07:27:33Z</time>
      </trkpt>
      <trkpt lat="45.45936" lon="5.90717">
        <ele>1196</ele>
        <time>2021-07-31T07:27:37Z</time>
      </trkpt>
      <trkpt lat="45.45935" lon="5.90728">
        <ele>1198</ele>
        <time>2021-07-31T07:27:47Z</time>
      </trkpt>
      <trkpt lat="45.45937" lon="5.90735">
        <ele>1199</ele>
        <time>2021-07-31T07:27:52Z</time>
      </trkpt>
      <trkpt lat="45.45938" lon="5.90742">
        <ele>1200</ele>
        <time>2021-07-31T07:27:57Z</time>
      </trkpt>
      <trkpt lat="45.45935" lon="5.90753">
        <ele>1202</ele>
        <time>2021-07-31T07:28:09Z</time>
      </trkpt>
      <trkpt lat="45.45937" lon="5.90761">
        <ele>1204</ele>
        <time>2021-07-31T07:28:19Z</time>
      </trkpt>
      <trkpt lat="45.45937" lon="5.90767">
        <ele>1205</ele>
        <time>2021-07-31T07:28:24Z</time>
      </trkpt>
      <trkpt lat="45.45936" lon="5.90772">
        <ele>1207</ele>
        <time>2021-07-31T07:28:34Z</time>
      </trkpt>
      <trkpt lat="45.45937" lon="5.90778">
        <ele>1208</ele>
        <time>2021-07-31T07:28:39Z</time>
      </trkpt>
      <trkpt lat="45.45941" lon="5.90781">
        <ele>1209</ele>
        <time>2021-07-31T07:28:46Z</time>
      </trkpt>
      <trkpt lat="45.45942" lon="5.90791">
        <ele>1212</ele>
        <time>2021-07-31T07:28:57Z</time>
      </trkpt>
      <trkpt lat="45.45941" lon="5.90809">
        <ele>1218</ele>
        <time>2021-07-31T07:29:27Z</time>
      </trkpt>
      <trkpt lat="45.4594" lon="5.90821">
        <ele>1222</ele>
        <time>2021-07-31T07:29:42Z</time>
      </trkpt>
      <trkpt lat="45.45947" lon="5.90838">
        <ele>1226</ele>
        <time>2021-07-31T07:30:01Z</time>
      </trkpt>
      <trkpt lat="45.4595" lon="5.90851">
        <ele>1228</ele>
        <time>2021-07-31T07:30:14Z</time>
      </trkpt>
      <trkpt lat="45.45953" lon="5.90857">
        <ele>1229</ele>
        <time>2021-07-31T07:30:19Z</time>
      </trkpt>
      <trkpt lat="45.45963" lon="5.90891">
        <ele>1233</ele>
        <time>2021-07-31T07:30:44Z</time>
      </trkpt>
      <trkpt lat="45.45962" lon="5.90902">
        <ele>1235</ele>
        <time>2021-07-31T07:30:55Z</time>
      </trkpt>
      <trkpt lat="45.45967" lon="5.90931">
        <ele>1242</ele>
        <time>2021-07-31T07:31:32Z</time>
      </trkpt>
      <trkpt lat="45.45968" lon="5.90958">
        <ele>1247</ele>
        <time>2021-07-31T07:31:56Z</time>
      </trkpt>
      <trkpt lat="45.45967" lon="5.90998">
        <ele>1256</ele>
        <time>2021-07-31T07:32:37Z</time>
      </trkpt>
      <trkpt lat="45.45966" lon="5.91007">
        <ele>1259</ele>
        <time>2021-07-31T07:32:55Z</time>
      </trkpt>
      <trkpt lat="45.45966" lon="5.9103">
        <ele>1263</ele>
        <time>2021-07-31T07:33:16Z</time>
      </trkpt>
      <trkpt lat="45.45966" lon="5.9104">
        <ele>1267</ele>
        <time>2021-07-31T07:33:31Z</time>
      </trkpt>
      <trkpt lat="45.45967" lon="5.91049">
        <ele>1270</ele>
        <time>2021-07-31T07:33:46Z</time>
      </trkpt>
      <trkpt lat="45.45965" lon="5.91057">
        <ele>1272</ele>
        <time>2021-07-31T07:33:56Z</time>
      </trkpt>
      <trkpt lat="45.45969" lon="5.91068">
        <ele>1274</ele>
        <time>2021-07-31T07:34:11Z</time>
      </trkpt>
      <trkpt lat="45.45966" lon="5.91085">
        <ele>1279</ele>
        <time>2021-07-31T07:34:36Z</time>
      </trkpt>
      <trkpt lat="45.45966" lon="5.91095">
        <ele>1282</ele>
        <time>2021-07-31T07:34:47Z</time>
      </trkpt>
      <trkpt lat="45.45965" lon="5.91104">
        <ele>1283</ele>
        <time>2021-07-31T07:34:57Z</time>
      </trkpt>
      <trkpt lat="45.45967" lon="5.91118">
        <ele>1287</ele>
        <time>2021-07-31T07:35:13Z</time>
      </trkpt>
      <trkpt lat="45.45964" lon="5.91144">
        <ele>1293</ele>
        <time>2021-07-31T07:35:49Z</time>
      </trkpt>
      <trkpt lat="45.45964" lon="5.91156">
        <ele>1297</ele>
        <time>2021-07-31T07:36:04Z</time>
      </trkpt>
      <trkpt lat="45.45966" lon="5.91164">
        <ele>1299</ele>
        <time>2021-07-31T07:36:15Z</time>
      </trkpt>
      <trkpt lat="45.45967" lon="5.91172">
        <ele>1302</ele>
        <time>2021-07-31T07:36:30Z</time>
      </trkpt>
      <trkpt lat="45.4596" lon="5.91187">
        <ele>1308</ele>
        <time>2021-07-31T07:37:00Z</time>
      </trkpt>
      <trkpt lat="45.45956" lon="5.91208">
        <ele>1314</ele>
        <time>2021-07-31T07:37:35Z</time>
      </trkpt>
      <trkpt lat="45.45957" lon="5.91219">
        <ele>1318</ele>
        <time>2021-07-31T07:37:50Z</time>
      </trkpt>
      <trkpt lat="45.45954" lon="5.91226">
        <ele>1320</ele>
        <time>2021-07-31T07:38:05Z</time>
      </trkpt>
      <trkpt lat="45.45951" lon="5.91234">
        <ele>1322</ele>
        <time>2021-07-31T07:38:15Z</time>
      </trkpt>
      <trkpt lat="45.45953" lon="5.91241">
        <ele>1325</ele>
        <time>2021-07-31T07:38:30Z</time>
      </trkpt>
      <trkpt lat="45.4595" lon="5.91261">
        <ele>1332</ele>
        <time>2021-07-31T07:39:05Z</time>
      </trkpt>
      <trkpt lat="45.45948" lon="5.91271">
        <ele>1335</ele>
        <time>2021-07-31T07:39:20Z</time>
      </trkpt>
      <trkpt lat="45.45945" lon="5.91278">
        <ele>1337</ele>
        <time>2021-07-31T07:39:35Z</time>
      </trkpt>
      <trkpt lat="45.45945" lon="5.91288">
        <ele>1339</ele>
        <time>2021-07-31T07:39:45Z</time>
      </trkpt>
      <trkpt lat="45.45947" lon="5.91299">
        <ele>1343</ele>
        <time>2021-07-31T07:40:05Z</time>
      </trkpt>
      <trkpt lat="45.45945" lon="5.91306">
        <ele>1346</ele>
        <time>2021-07-31T07:40:20Z</time>
      </trkpt>
      <trkpt lat="45.45946" lon="5.91315">
        <ele>1350</ele>
        <time>2021-07-31T07:40:40Z</time>
      </trkpt>
      <trkpt lat="45.45943" lon="5.91322">
        <ele>1353</ele>
        <time>2021-07-31T07:40:55Z</time>
      </trkpt>
      <trkpt lat="45.45943" lon="5.91334">
        <ele>1355</ele>
        <time>2021-07-31T07:41:07Z</time>
      </trkpt>
      <trkpt lat="45.45941" lon="5.91341">
        <ele>1359</ele>
        <time>2021-07-31T07:41:27Z</time>
      </trkpt>
      <trkpt lat="45.45934" lon="5.91359">
        <ele>1366</ele>
        <time>2021-07-31T07:41:59Z</time>
      </trkpt>
      <trkpt lat="45.45936" lon="5.91367">
        <ele>1368</ele>
        <time>2021-07-31T07:42:11Z</time>
      </trkpt>
      <trkpt lat="45.45936" lon="5.91377">
        <ele>1372</ele>
        <time>2021-07-31T07:42:29Z</time>
      </trkpt>
      <trkpt lat="45.45927" lon="5.91408">
        <ele>1381</ele>
        <time>2021-07-31T07:43:19Z</time>
      </trkpt>
      <trkpt lat="45.45929" lon="5.91416">
        <ele>1384</ele>
        <time>2021-07-31T07:43:34Z</time>
      </trkpt>
      <trkpt lat="45.45927" lon="5.91426">
        <ele>1388</ele>
        <time>2021-07-31T07:43:59Z</time>
      </trkpt>
      <trkpt lat="45.45927" lon="5.91437">
        <ele>1390</ele>
        <time>2021-07-31T07:44:09Z</time>
      </trkpt>
      <trkpt lat="45.45934" lon="5.91457">
        <ele>1396</ele>
        <time>2021-07-31T07:44:36Z</time>
      </trkpt>
      <trkpt lat="45.45936" lon="5.91465">
        <ele>1398</ele>
        <time>2021-07-31T07:44:49Z</time>
      </trkpt>
      <trkpt lat="45.45938" lon="5.91472">
        <ele>1401</ele>
        <time>2021-07-31T07:45:04Z</time>
      </trkpt>
      <trkpt lat="45.45951" lon="5.91484">
        <ele>1405</ele>
        <time>2021-07-31T07:45:34Z</time>
      </trkpt>
      <trkpt lat="45.45955" lon="5.91491">
        <ele>1406</ele>
        <time>2021-07-31T07:45:44Z</time>
      </trkpt>
      <trkpt lat="45.45961" lon="5.91502">
        <ele>1407</ele>
        <time>2021-07-31T07:45:56Z</time>
      </trkpt>
      <trkpt lat="45.4597" lon="5.9151">
        <ele>1410</ele>
        <time>2021-07-31T07:46:08Z</time>
      </trkpt>
      <trkpt lat="45.45975" lon="5.91513">
        <ele>1410</ele>
        <time>2021-07-31T07:46:14Z</time>
      </trkpt>
      <trkpt lat="45.45979" lon="5.91519">
        <ele>1411</ele>
        <time>2021-07-31T07:46:20Z</time>
      </trkpt>
      <trkpt lat="45.45981" lon="5.91526">
        <ele>1414</ele>
        <time>2021-07-31T07:46:37Z</time>
      </trkpt>
      <trkpt lat="45.45982" lon="5.91535">
        <ele>1418</ele>
        <time>2021-07-31T07:47:07Z</time>
      </trkpt>
      <trkpt lat="45.45989" lon="5.9153">
        <ele>1419</ele>
        <time>2021-07-31T07:47:23Z</time>
      </trkpt>
      <trkpt lat="45.45994" lon="5.91547">
        <ele>1425</ele>
        <time>2021-07-31T07:47:56Z</time>
      </trkpt>
      <trkpt lat="45.45999" lon="5.91555">
        <ele>1427</ele>
        <time>2021-07-31T07:48:08Z</time>
      </trkpt>
      <trkpt lat="45.46014" lon="5.91568">
        <ele>1434</ele>
        <time>2021-07-31T07:48:46Z</time>
      </trkpt>
      <trkpt lat="45.4602" lon="5.91577">
        <ele>1437</ele>
        <time>2021-07-31T07:49:01Z</time>
      </trkpt>
      <trkpt lat="45.46027" lon="5.91582">
        <ele>1440</ele>
        <time>2021-07-31T07:49:19Z</time>
      </trkpt>
      <trkpt lat="45.46047" lon="5.91605">
        <ele>1447</ele>
        <time>2021-07-31T07:49:58Z</time>
      </trkpt>
      <trkpt lat="45.4606" lon="5.91626">
        <ele>1452</ele>
        <time>2021-07-31T07:50:25Z</time>
      </trkpt>
      <trkpt lat="45.46066" lon="5.91634">
        <ele>1455</ele>
        <time>2021-07-31T07:50:40Z</time>
      </trkpt>
      <trkpt lat="45.46069" lon="5.91644">
        <ele>1460</ele>
        <time>2021-07-31T07:51:06Z</time>
      </trkpt>
      <trkpt lat="45.46071" lon="5.91653">
        <ele>1464</ele>
        <time>2021-07-31T07:51:26Z</time>
      </trkpt>
      <trkpt lat="45.46075" lon="5.91664">
        <ele>1468</ele>
        <time>2021-07-31T07:51:51Z</time>
      </trkpt>
      <trkpt lat="45.46079" lon="5.91679">
        <ele>1470</ele>
        <time>2021-07-31T07:52:04Z</time>
      </trkpt>
      <trkpt lat="45.46077" lon="5.91689">
        <ele>1476</ele>
        <time>2021-07-31T07:52:31Z</time>
      </trkpt>
      <trkpt lat="45.46082" lon="5.91703">
        <ele>1482</ele>
        <time>2021-07-31T07:53:04Z</time>
      </trkpt>
      <trkpt lat="45.46081" lon="5.91715">
        <ele>1487</ele>
        <time>2021-07-31T07:53:34Z</time>
      </trkpt>
      <trkpt lat="45.4608" lon="5.91739">
        <ele>1496</ele>
        <time>2021-07-31T07:54:19Z</time>
      </trkpt>
      <trkpt lat="45.46085" lon="5.91747">
        <ele>1497</ele>
        <time>2021-07-31T07:54:30Z</time>
      </trkpt>
      <trkpt lat="45.46087" lon="5.91762">
        <ele>1504</ele>
        <time>2021-07-31T07:55:11Z</time>
      </trkpt>
      <trkpt lat="45.46093" lon="5.91772">
        <ele>1510</ele>
        <time>2021-07-31T07:55:42Z</time>
      </trkpt>
      <trkpt lat="45.46102" lon="5.91795">
        <ele>1517</ele>
        <time>2021-07-31T07:56:19Z</time>
      </trkpt>
      <trkpt lat="45.46108" lon="5.91805">
        <ele>1523</ele>
        <time>2021-07-31T07:56:49Z</time>
      </trkpt>
      <trkpt lat="45.46107" lon="5.91814">
        <ele>1527</ele>
        <time>2021-07-31T07:57:07Z</time>
      </trkpt>
      <trkpt lat="45.46113" lon="5.91828">
        <ele>1532</ele>
        <time>2021-07-31T07:57:30Z</time>
      </trkpt>
      <trkpt lat="45.46115" lon="5.91841">
        <ele>1538</ele>
        <time>2021-07-31T07:58:06Z</time>
      </trkpt>
      <trkpt lat="45.46113" lon="5.91848">
        <ele>1541</ele>
        <time>2021-07-31T07:58:21Z</time>
      </trkpt>
      <trkpt lat="45.46117" lon="5.91857">
        <ele>1544</ele>
        <time>2021-07-31T07:58:41Z</time>
      </trkpt>
      <trkpt lat="45.46118" lon="5.91867">
        <ele>1549</ele>
        <time>2021-07-31T07:59:02Z</time>
      </trkpt>
      <trkpt lat="45.46122" lon="5.91872">
        <ele>1551</ele>
        <time>2021-07-31T07:59:14Z</time>
      </trkpt>
      <trkpt lat="45.46126" lon="5.91882">
        <ele>1554</ele>
        <time>2021-07-31T07:59:31Z</time>
      </trkpt>
      <trkpt lat="45.4613" lon="5.91889">
        <ele>1557</ele>
        <time>2021-07-31T07:59:46Z</time>
      </trkpt>
      <trkpt lat="45.46133" lon="5.91897">
        <ele>1563</ele>
        <time>2021-07-31T08:00:21Z</time>
      </trkpt>
      <trkpt lat="45.46138" lon="5.91913">
        <ele>1568</ele>
        <time>2021-07-31T08:00:48Z</time>
      </trkpt>
      <trkpt lat="45.46131" lon="5.91923">
        <ele>1574</ele>
        <time>2021-07-31T08:01:18Z</time>
      </trkpt>
      <trkpt lat="45.46127" lon="5.91934">
        <ele>1579</ele>
        <time>2021-07-31T08:01:43Z</time>
      </trkpt>
      <trkpt lat="45.46113" lon="5.91949">
        <ele>1585</ele>
        <time>2021-07-31T08:02:21Z</time>
      </trkpt>
      <trkpt lat="45.46102" lon="5.91959">
        <ele>1589</ele>
        <time>2021-07-31T08:02:41Z</time>
      </trkpt>
      <trkpt lat="45.46091" lon="5.91973">
        <ele>1595</ele>
        <time>2021-07-31T08:03:12Z</time>
      </trkpt>
      <trkpt lat="45.46088" lon="5.9198">
        <ele>1598</ele>
        <time>2021-07-31T08:03:29Z</time>
      </trkpt>
      <trkpt lat="45.4608" lon="5.91983">
        <ele>1599</ele>
        <time>2021-07-31T08:03:42Z</time>
      </trkpt>
      <trkpt lat="45.46075" lon="5.91987">
        <ele>1602</ele>
        <time>2021-07-31T08:03:56Z</time>
      </trkpt>
      <trkpt lat="45.46072" lon="5.91997">
        <ele>1608</ele>
        <time>2021-07-31T08:04:22Z</time>
      </trkpt>
      <trkpt lat="45.4607" lon="5.92004">
        <ele>1609</ele>
        <time>2021-07-31T08:04:28Z</time>
      </trkpt>
      <trkpt lat="45.46074" lon="5.92014">
        <ele>1613</ele>
        <time>2021-07-31T08:04:48Z</time>
      </trkpt>
      <trkpt lat="45.4607" lon="5.92022">
        <ele>1617</ele>
        <time>2021-07-31T08:05:13Z</time>
      </trkpt>
      <trkpt lat="45.46071" lon="5.92029">
        <ele>1621</ele>
        <time>2021-07-31T08:05:33Z</time>
      </trkpt>
      <trkpt lat="45.46074" lon="5.92038">
        <ele>1624</ele>
        <time>2021-07-31T08:05:48Z</time>
      </trkpt>
      <trkpt lat="45.46069" lon="5.92047">
        <ele>1629</ele>
        <time>2021-07-31T08:06:18Z</time>
      </trkpt>
      <trkpt lat="45.46069" lon="5.92057">
        <ele>1633</ele>
        <time>2021-07-31T08:06:38Z</time>
      </trkpt>
      <trkpt lat="45.46074" lon="5.92063">
        <ele>1636</ele>
        <time>2021-07-31T08:06:53Z</time>
      </trkpt>
      <trkpt lat="45.46077" lon="5.9207">
        <ele>1638</ele>
        <time>2021-07-31T08:07:03Z</time>
      </trkpt>
      <trkpt lat="45.46074" lon="5.92077">
        <ele>1642</ele>
        <time>2021-07-31T08:07:23Z</time>
      </trkpt>
      <trkpt lat="45.46072" lon="5.92086">
        <ele>1646</ele>
        <time>2021-07-31T08:08:03Z</time>
      </trkpt>
      <trkpt lat="45.46068" lon="5.92094">
        <ele>1652</ele>
        <time>2021-07-31T08:08:45Z</time>
      </trkpt>
      <trkpt lat="45.46072" lon="5.92101">
        <ele>1655</ele>
        <time>2021-07-31T08:08:58Z</time>
      </trkpt>
      <trkpt lat="45.46075" lon="5.92108">
        <ele>1657</ele>
        <time>2021-07-31T08:09:10Z</time>
      </trkpt>
      <trkpt lat="45.46077" lon="5.92117">
        <ele>1662</ele>
        <time>2021-07-31T08:09:32Z</time>
      </trkpt>
      <trkpt lat="45.46076" lon="5.92124">
        <ele>1665</ele>
        <time>2021-07-31T08:09:47Z</time>
      </trkpt>
      <trkpt lat="45.46071" lon="5.92128">
        <ele>1669</ele>
        <time>2021-07-31T08:10:12Z</time>
      </trkpt>
      <trkpt lat="45.46073" lon="5.92136">
        <ele>1673</ele>
        <time>2021-07-31T08:10:33Z</time>
      </trkpt>
      <trkpt lat="45.46079" lon="5.92144">
        <ele>1675</ele>
        <time>2021-07-31T08:10:43Z</time>
      </trkpt>
      <trkpt lat="45.46081" lon="5.92151">
        <ele>1681</ele>
        <time>2021-07-31T08:11:13Z</time>
      </trkpt>
      <trkpt lat="45.46085" lon="5.92159">
        <ele>1684</ele>
        <time>2021-07-31T08:11:28Z</time>
      </trkpt>
      <trkpt lat="45.46083" lon="5.92171">
        <ele>1689</ele>
        <time>2021-07-31T08:11:53Z</time>
      </trkpt>
      <trkpt lat="45.46083" lon="5.92181">
        <ele>1695</ele>
        <time>2021-07-31T08:12:23Z</time>
      </trkpt>
      <trkpt lat="45.46084" lon="5.9219">
        <ele>1700</ele>
        <time>2021-07-31T08:12:53Z</time>
      </trkpt>
      <trkpt lat="45.46085" lon="5.92201">
        <ele>1705</ele>
        <time>2021-07-31T08:13:14Z</time>
      </trkpt>
      <trkpt lat="45.4609" lon="5.92207">
        <ele>1710</ele>
        <time>2021-07-31T08:13:39Z</time>
      </trkpt>
      <trkpt lat="45.46093" lon="5.92215">
        <ele>1716</ele>
        <time>2021-07-31T08:14:14Z</time>
      </trkpt>
      <trkpt lat="45.46093" lon="5.92224">
        <ele>1720</ele>
        <time>2021-07-31T08:14:35Z</time>
      </trkpt>
      <trkpt lat="45.46094" lon="5.92232">
        <ele>1724</ele>
        <time>2021-07-31T08:14:57Z</time>
      </trkpt>
      <trkpt lat="45.46093" lon="5.92241">
        <ele>1730</ele>
        <time>2021-07-31T08:15:27Z</time>
      </trkpt>
      <trkpt lat="45.46096" lon="5.92249">
        <ele>1737</ele>
        <time>2021-07-31T08:16:13Z</time>
      </trkpt>
      <trkpt lat="45.46103" lon="5.92257">
        <ele>1743</ele>
        <time>2021-07-31T08:16:48Z</time>
      </trkpt>
      <trkpt lat="45.46112" lon="5.92261">
        <ele>1745</ele>
        <time>2021-07-31T08:17:03Z</time>
      </trkpt>
      <trkpt lat="45.46112" lon="5.9227">
        <ele>1752</ele>
        <time>2021-07-31T08:17:46Z</time>
      </trkpt>
      <trkpt lat="45.46107" lon="5.92275">
        <ele>1754</ele>
        <time>2021-07-31T08:17:58Z</time>
      </trkpt>
      <trkpt lat="45.46112" lon="5.92279">
        <ele>1758</ele>
        <time>2021-07-31T08:18:22Z</time>
      </trkpt>
      <trkpt lat="45.46107" lon="5.92288">
        <ele>1762</ele>
        <time>2021-07-31T08:18:43Z</time>
      </trkpt>
      <trkpt lat="45.46098" lon="5.92293">
        <ele>1768</ele>
        <time>2021-07-31T08:19:13Z</time>
      </trkpt>
      <trkpt lat="45.46102" lon="5.92303">
        <ele>1774</ele>
        <time>2021-07-31T08:19:49Z</time>
      </trkpt>
      <trkpt lat="45.46104" lon="5.92314">
        <ele>1777</ele>
        <time>2021-07-31T08:20:06Z</time>
      </trkpt>
      <trkpt lat="45.46099" lon="5.92317">
        <ele>1779</ele>
        <time>2021-07-31T08:20:24Z</time>
      </trkpt>
      <trkpt lat="45.46105" lon="5.92326">
        <ele>1786</ele>
        <time>2021-07-31T08:21:01Z</time>
      </trkpt>
      <trkpt lat="45.46102" lon="5.92336">
        <ele>1788</ele>
        <time>2021-07-31T08:21:16Z</time>
      </trkpt>
      <trkpt lat="45.46102" lon="5.92348">
        <ele>1791</ele>
        <time>2021-07-31T08:21:42Z</time>
      </trkpt>
      <trkpt lat="45.46095" lon="5.92339">
        <ele>1798</ele>
        <time>2021-07-31T08:22:28Z</time>
      </trkpt>
      <trkpt lat="45.46088" lon="5.92338">
        <ele>1799</ele>
        <time>2021-07-31T08:22:39Z</time>
      </trkpt>
      <trkpt lat="45.46071" lon="5.92331">
        <ele>1802</ele>
        <time>2021-07-31T08:23:00Z</time>
      </trkpt>
      <trkpt lat="45.46065" lon="5.92332">
        <ele>1802</ele>
        <time>2021-07-31T08:23:04Z</time>
      </trkpt>
      <trkpt lat="45.46059" lon="5.92335">
        <ele>1803</ele>
        <time>2021-07-31T08:23:09Z</time>
      </trkpt>
      <trkpt lat="45.46054" lon="5.92333">
        <ele>1802</ele>
        <time>2021-07-31T08:23:15Z</time>
      </trkpt>
      <trkpt lat="45.46046" lon="5.92331">
        <ele>1801</ele>
        <time>2021-07-31T08:23:22Z</time>
      </trkpt>
      <trkpt lat="45.46038" lon="5.92331">
        <ele>1801</ele>
        <time>2021-07-31T08:23:28Z</time>
      </trkpt>
      <trkpt lat="45.46031" lon="5.9233">
        <ele>1802</ele>
        <time>2021-07-31T08:23:35Z</time>
      </trkpt>
      <trkpt lat="45.46022" lon="5.92321">
        <ele>1802</ele>
        <time>2021-07-31T08:23:49Z</time>
      </trkpt>
      <trkpt lat="45.46013" lon="5.92323">
        <ele>1802</ele>
        <time>2021-07-31T08:23:56Z</time>
      </trkpt>
      <trkpt lat="45.46003" lon="5.92329">
        <ele>1801</ele>
        <time>2021-07-31T08:24:06Z</time>
      </trkpt>
      <trkpt lat="45.45997" lon="5.92333">
        <ele>1802</ele>
        <time>2021-07-31T08:24:12Z</time>
      </trkpt>
      <trkpt lat="45.45992" lon="5.9234">
        <ele>1805</ele>
        <time>2021-07-31T08:24:29Z</time>
      </trkpt>
      <trkpt lat="45.45985" lon="5.92344">
        <ele>1809</ele>
        <time>2021-07-31T08:24:46Z</time>
      </trkpt>
      <trkpt lat="45.45979" lon="5.92342">
        <ele>1812</ele>
        <time>2021-07-31T08:25:04Z</time>
      </trkpt>
      <trkpt lat="45.45972" lon="5.92342">
        <ele>1815</ele>
        <time>2021-07-31T08:25:26Z</time>
      </trkpt>
      <trkpt lat="45.4597" lon="5.9235">
        <ele>1818</ele>
        <time>2021-07-31T08:25:41Z</time>
      </trkpt>
      <trkpt lat="45.45969" lon="5.92358">
        <ele>1821</ele>
        <time>2021-07-31T08:25:56Z</time>
      </trkpt>
      <trkpt lat="45.45966" lon="5.92366">
        <ele>1823</ele>
        <time>2021-07-31T08:26:07Z</time>
      </trkpt>
      <trkpt lat="45.45949" lon="5.92357">
        <ele>1827</ele>
        <time>2021-07-31T08:26:30Z</time>
      </trkpt>
      <trkpt lat="45.45926" lon="5.9236">
        <ele>1828</ele>
        <time>2021-07-31T08:26:50Z</time>
      </trkpt>
      <trkpt lat="45.4592" lon="5.92361">
        <ele>1830</ele>
        <time>2021-07-31T08:26:59Z</time>
      </trkpt>
      <trkpt lat="45.45916" lon="5.9237">
        <ele>1835</ele>
        <time>2021-07-31T08:27:19Z</time>
      </trkpt>
      <trkpt lat="45.45919" lon="5.92376">
        <ele>1838</ele>
        <time>2021-07-31T08:27:34Z</time>
      </trkpt>
      <trkpt lat="45.45909" lon="5.92385">
        <ele>1846</ele>
        <time>2021-07-31T08:28:24Z</time>
      </trkpt>
      <trkpt lat="45.45901" lon="5.92385">
        <ele>1850</ele>
        <time>2021-07-31T08:28:49Z</time>
      </trkpt>
      <trkpt lat="45.45897" lon="5.92391">
        <ele>1855</ele>
        <time>2021-07-31T08:29:44Z</time>
      </trkpt>
      <trkpt lat="45.45892" lon="5.92391">
        <ele>1858</ele>
        <time>2021-07-31T08:29:59Z</time>
      </trkpt>
      <trkpt lat="45.45886" lon="5.92394">
        <ele>1863</ele>
        <time>2021-07-31T08:30:29Z</time>
      </trkpt>
      <trkpt lat="45.459" lon="5.92402">
        <ele>1870</ele>
        <time>2021-07-31T08:31:35Z</time>
      </trkpt>
      <trkpt lat="45.45918" lon="5.92407">
        <ele>1869</ele>
        <time>2021-07-31T08:32:22Z</time>
      </trkpt>
      <trkpt lat="45.45926" lon="5.92428">
        <ele>1870</ele>
        <time>2021-07-31T08:32:50Z</time>
      </trkpt>
      <trkpt lat="45.45938" lon="5.92429">
        <ele>1876</ele>
        <time>2021-07-31T08:33:28Z</time>
      </trkpt>
      <trkpt lat="45.45944" lon="5.9243">
        <ele>1877</ele>
        <time>2021-07-31T08:33:34Z</time>
      </trkpt>
      <trkpt lat="45.45954" lon="5.92429">
        <ele>1878</ele>
        <time>2021-07-31T08:33:53Z</time>
      </trkpt>
      <trkpt lat="45.45958" lon="5.92433">
        <ele>1878</ele>
        <time>2021-07-31T08:33:59Z</time>
      </trkpt>
      <trkpt lat="45.45965" lon="5.92437">
        <ele>1878</ele>
        <time>2021-07-31T08:34:08Z</time>
      </trkpt>
      <trkpt lat="45.45975" lon="5.92443">
        <ele>1879</ele>
        <time>2021-07-31T08:34:21Z</time>
      </trkpt>
      <trkpt lat="45.45981" lon="5.92445">
        <ele>1879</ele>
        <time>2021-07-31T08:34:27Z</time>
      </trkpt>
      <trkpt lat="45.45994" lon="5.9244">
        <ele>1879</ele>
        <time>2021-07-31T08:34:40Z</time>
      </trkpt>
      <trkpt lat="45.45997" lon="5.92437">
        <ele>1879</ele>
        <time>2021-07-31T08:34:44Z</time>
      </trkpt>
      <trkpt lat="45.46004" lon="5.92429">
        <ele>1880</ele>
        <time>2021-07-31T08:34:53Z</time>
      </trkpt>
      <trkpt lat="45.46009" lon="5.92432">
        <ele>1891</ele>
        <time>2021-07-31T08:35:52Z</time>
      </trkpt>
      <trkpt lat="45.46005" lon="5.92439">
        <ele>1891</ele>
        <time>2021-07-31T08:35:58Z</time>
      </trkpt>
      <trkpt lat="45.46005" lon="5.92451">
        <ele>1894</ele>
        <time>2021-07-31T08:36:13Z</time>
      </trkpt>
      <trkpt lat="45.46008" lon="5.92454">
        <ele>1895</ele>
        <time>2021-07-31T08:36:16Z</time>
      </trkpt>
      <trkpt lat="45.46011" lon="5.92452">
        <ele>1894</ele>
        <time>2021-07-31T08:36:27Z</time>
      </trkpt>
      <trkpt lat="45.46017" lon="5.9245">
        <ele>1895</ele>
        <time>2021-07-31T08:37:15Z</time>
      </trkpt>
      <trkpt lat="45.46022" lon="5.92443">
        <ele>1897</ele>
        <time>2021-07-31T08:37:22Z</time>
      </trkpt>
      <trkpt lat="45.46032" lon="5.92438">
        <ele>1898</ele>
        <time>2021-07-31T08:37:33Z</time>
      </trkpt>
      <trkpt lat="45.46044" lon="5.92435">
        <ele>1898</ele>
        <time>2021-07-31T08:37:43Z</time>
      </trkpt>
      <trkpt lat="45.46049" lon="5.92435">
        <ele>1899</ele>
        <time>2021-07-31T08:37:48Z</time>
      </trkpt>
      <trkpt lat="45.46059" lon="5.92435">
        <ele>1899</ele>
        <time>2021-07-31T08:38:04Z</time>
      </trkpt>
      <trkpt lat="45.46068" lon="5.92437">
        <ele>1896</ele>
        <time>2021-07-31T08:38:20Z</time>
      </trkpt>
      <trkpt lat="45.46074" lon="5.9244">
        <ele>1896</ele>
        <time>2021-07-31T08:38:26Z</time>
      </trkpt>
      <trkpt lat="45.46079" lon="5.92436">
        <ele>1896</ele>
        <time>2021-07-31T08:38:31Z</time>
      </trkpt>
      <trkpt lat="45.46089" lon="5.92442">
        <ele>1896</ele>
        <time>2021-07-31T08:38:49Z</time>
      </trkpt>
      <trkpt lat="45.46096" lon="5.92444">
        <ele>1894</ele>
        <time>2021-07-31T08:38:53Z</time>
      </trkpt>
      <trkpt lat="45.46118" lon="5.92456">
        <ele>1892</ele>
        <time>2021-07-31T08:39:09Z</time>
      </trkpt>
      <trkpt lat="45.46163" lon="5.92475">
        <ele>1895</ele>
        <time>2021-07-31T08:39:32Z</time>
      </trkpt>
      <trkpt lat="45.46168" lon="5.92478">
        <ele>1894</ele>
        <time>2021-07-31T08:39:36Z</time>
      </trkpt>
      <trkpt lat="45.46174" lon="5.92476">
        <ele>1894</ele>
        <time>2021-07-31T08:39:41Z</time>
      </trkpt>
      <trkpt lat="45.46178" lon="5.92475">
        <ele>1894</ele>
        <time>2021-07-31T08:39:44Z</time>
      </trkpt>
      <trkpt lat="45.4621" lon="5.92485">
        <ele>1891</ele>
        <time>2021-07-31T08:40:03Z</time>
      </trkpt>
      <trkpt lat="45.46214" lon="5.92485">
        <ele>1891</ele>
        <time>2021-07-31T08:40:05Z</time>
      </trkpt>
      <trkpt lat="45.4622" lon="5.92484">
        <ele>1891</ele>
        <time>2021-07-31T08:40:08Z</time>
      </trkpt>
      <trkpt lat="45.46235" lon="5.92487">
        <ele>1890</ele>
        <time>2021-07-31T08:40:16Z</time>
      </trkpt>
      <trkpt lat="45.4624" lon="5.92487">
        <ele>1890</ele>
        <time>2021-07-31T08:40:18Z</time>
      </trkpt>
      <trkpt lat="45.46245" lon="5.92487">
        <ele>1890</ele>
        <time>2021-07-31T08:40:20Z</time>
      </trkpt>
      <trkpt lat="45.46254" lon="5.92491">
        <ele>1890</ele>
        <time>2021-07-31T08:40:24Z</time>
      </trkpt>
      <trkpt lat="45.46302" lon="5.92519">
        <ele>1892</ele>
        <time>2021-07-31T08:40:48Z</time>
      </trkpt>
      <trkpt lat="45.46308" lon="5.9252">
        <ele>1893</ele>
        <time>2021-07-31T08:40:51Z</time>
      </trkpt>
      <trkpt lat="45.46328" lon="5.92528">
        <ele>1894</ele>
        <time>2021-07-31T08:41:01Z</time>
      </trkpt>
      <trkpt lat="45.46337" lon="5.92529">
        <ele>1895</ele>
        <time>2021-07-31T08:41:10Z</time>
      </trkpt>
      <trkpt lat="45.46341" lon="5.92534">
        <ele>1895</ele>
        <time>2021-07-31T08:41:13Z</time>
      </trkpt>
      <trkpt lat="45.46348" lon="5.92545">
        <ele>1897</ele>
        <time>2021-07-31T08:41:19Z</time>
      </trkpt>
      <trkpt lat="45.46354" lon="5.92549">
        <ele>1898</ele>
        <time>2021-07-31T08:41:24Z</time>
      </trkpt>
      <trkpt lat="45.46357" lon="5.92557">
        <ele>1898</ele>
        <time>2021-07-31T08:41:29Z</time>
      </trkpt>
      <trkpt lat="45.46359" lon="5.92564">
        <ele>1898</ele>
        <time>2021-07-31T08:41:33Z</time>
      </trkpt>
      <trkpt lat="45.46375" lon="5.92576">
        <ele>1901</ele>
        <time>2021-07-31T08:41:48Z</time>
      </trkpt>
      <trkpt lat="45.46384" lon="5.92581">
        <ele>1903</ele>
        <time>2021-07-31T08:42:01Z</time>
      </trkpt>
      <trkpt lat="45.46388" lon="5.92581">
        <ele>1904</ele>
        <time>2021-07-31T08:42:04Z</time>
      </trkpt>
      <trkpt lat="45.46392" lon="5.92585">
        <ele>1905</ele>
        <time>2021-07-31T08:42:11Z</time>
      </trkpt>
      <trkpt lat="45.46409" lon="5.92595">
        <ele>1908</ele>
        <time>2021-07-31T08:42:30Z</time>
      </trkpt>
      <trkpt lat="45.46422" lon="5.92594">
        <ele>1908</ele>
        <time>2021-07-31T08:42:41Z</time>
      </trkpt>
      <trkpt lat="45.46426" lon="5.92597">
        <ele>1908</ele>
        <time>2021-07-31T08:42:45Z</time>
      </trkpt>
      <trkpt lat="45.46432" lon="5.92598">
        <ele>1908</ele>
        <time>2021-07-31T08:42:51Z</time>
      </trkpt>
      <trkpt lat="45.46436" lon="5.92598">
        <ele>1907</ele>
        <time>2021-07-31T08:42:54Z</time>
      </trkpt>
      <trkpt lat="45.4644" lon="5.92599">
        <ele>1907</ele>
        <time>2021-07-31T08:42:58Z</time>
      </trkpt>
      <trkpt lat="45.46446" lon="5.926">
        <ele>1908</ele>
        <time>2021-07-31T08:43:05Z</time>
      </trkpt>
      <trkpt lat="45.4645" lon="5.92601">
        <ele>1908</ele>
        <time>2021-07-31T08:43:08Z</time>
      </trkpt>
      <trkpt lat="45.46454" lon="5.926">
        <ele>1908</ele>
        <time>2021-07-31T08:43:12Z</time>
      </trkpt>
      <trkpt lat="45.46459" lon="5.92598">
        <ele>1909</ele>
        <time>2021-07-31T08:43:20Z</time>
      </trkpt>
      <trkpt lat="45.46464" lon="5.92601">
        <ele>1908</ele>
        <time>2021-07-31T08:43:23Z</time>
      </trkpt>
      <trkpt lat="45.46467" lon="5.92601">
        <ele>1908</ele>
        <time>2021-07-31T08:43:25Z</time>
      </trkpt>
      <trkpt lat="45.46472" lon="5.92599">
        <ele>1908</ele>
        <time>2021-07-31T08:43:28Z</time>
      </trkpt>
      <trkpt lat="45.46476" lon="5.92599">
        <ele>1908</ele>
        <time>2021-07-31T08:43:32Z</time>
      </trkpt>
      <trkpt lat="45.4648" lon="5.926">
        <ele>1908</ele>
        <time>2021-07-31T08:43:35Z</time>
      </trkpt>
      <trkpt lat="45.46484" lon="5.92603">
        <ele>1908</ele>
        <time>2021-07-31T08:43:38Z</time>
      </trkpt>
      <trkpt lat="45.46491" lon="5.92598">
        <ele>1909</ele>
        <time>2021-07-31T08:43:47Z</time>
      </trkpt>
      <trkpt lat="45.46499" lon="5.92598">
        <ele>1909</ele>
        <time>2021-07-31T08:43:55Z</time>
      </trkpt>
      <trkpt lat="45.46504" lon="5.92599">
        <ele>1909</ele>
        <time>2021-07-31T08:43:59Z</time>
      </trkpt>
      <trkpt lat="45.4652" lon="5.92602">
        <ele>1908</ele>
        <time>2021-07-31T08:44:12Z</time>
      </trkpt>
      <trkpt lat="45.46525" lon="5.926">
        <ele>1908</ele>
        <time>2021-07-31T08:44:20Z</time>
      </trkpt>
      <trkpt lat="45.46537" lon="5.92602">
        <ele>1908</ele>
        <time>2021-07-31T08:44:29Z</time>
      </trkpt>
      <trkpt lat="45.46546" lon="5.92598">
        <ele>1908</ele>
        <time>2021-07-31T08:44:37Z</time>
      </trkpt>
      <trkpt lat="45.46548" lon="5.92594">
        <ele>1908</ele>
        <time>2021-07-31T08:44:40Z</time>
      </trkpt>
      <trkpt lat="45.46556" lon="5.92589">
        <ele>1908</ele>
        <time>2021-07-31T08:44:47Z</time>
      </trkpt>
      <trkpt lat="45.46559" lon="5.92585">
        <ele>1909</ele>
        <time>2021-07-31T08:44:50Z</time>
      </trkpt>
      <trkpt lat="45.46563" lon="5.92583">
        <ele>1909</ele>
        <time>2021-07-31T08:44:54Z</time>
      </trkpt>
      <trkpt lat="45.46584" lon="5.9258">
        <ele>1911</ele>
        <time>2021-07-31T08:45:18Z</time>
      </trkpt>
      <trkpt lat="45.4659" lon="5.92576">
        <ele>1912</ele>
        <time>2021-07-31T08:45:25Z</time>
      </trkpt>
      <trkpt lat="45.46594" lon="5.92573">
        <ele>1912</ele>
        <time>2021-07-31T08:45:29Z</time>
      </trkpt>
      <trkpt lat="45.46598" lon="5.92572">
        <ele>1913</ele>
        <time>2021-07-31T08:45:33Z</time>
      </trkpt>
      <trkpt lat="45.46601" lon="5.92569">
        <ele>1913</ele>
        <time>2021-07-31T08:45:37Z</time>
      </trkpt>
      <trkpt lat="45.4661" lon="5.92565">
        <ele>1914</ele>
        <time>2021-07-31T08:45:43Z</time>
      </trkpt>
      <trkpt lat="45.46613" lon="5.92564">
        <ele>1914</ele>
        <time>2021-07-31T08:45:47Z</time>
      </trkpt>
      <trkpt lat="45.46617" lon="5.92561">
        <ele>1914</ele>
        <time>2021-07-31T08:45:51Z</time>
      </trkpt>
      <trkpt lat="45.46627" lon="5.92549">
        <ele>1912</ele>
        <time>2021-07-31T08:46:03Z</time>
      </trkpt>
      <trkpt lat="45.46628" lon="5.92544">
        <ele>1911</ele>
        <time>2021-07-31T08:46:07Z</time>
      </trkpt>
      <trkpt lat="45.46649" lon="5.92517">
        <ele>1903</ele>
        <time>2021-07-31T08:46:36Z</time>
      </trkpt>
      <trkpt lat="45.46661" lon="5.92511">
        <ele>1901</ele>
        <time>2021-07-31T08:46:53Z</time>
      </trkpt>
      <trkpt lat="45.46666" lon="5.92511">
        <ele>1901</ele>
        <time>2021-07-31T08:46:56Z</time>
      </trkpt>
      <trkpt lat="45.46669" lon="5.92508">
        <ele>1902</ele>
        <time>2021-07-31T08:46:59Z</time>
      </trkpt>
      <trkpt lat="45.46673" lon="5.92507">
        <ele>1902</ele>
        <time>2021-07-31T08:47:03Z</time>
      </trkpt>
      <trkpt lat="45.46677" lon="5.9251">
        <ele>1902</ele>
        <time>2021-07-31T08:47:07Z</time>
      </trkpt>
      <trkpt lat="45.46681" lon="5.92508">
        <ele>1902</ele>
        <time>2021-07-31T08:47:10Z</time>
      </trkpt>
      <trkpt lat="45.46684" lon="5.92506">
        <ele>1902</ele>
        <time>2021-07-31T08:47:13Z</time>
      </trkpt>
      <trkpt lat="45.46688" lon="5.92506">
        <ele>1902</ele>
        <time>2021-07-31T08:47:16Z</time>
      </trkpt>
      <trkpt lat="45.46697" lon="5.92502">
        <ele>1902</ele>
        <time>2021-07-31T08:47:23Z</time>
      </trkpt>
      <trkpt lat="45.467" lon="5.92501">
        <ele>1902</ele>
        <time>2021-07-31T08:47:27Z</time>
      </trkpt>
      <trkpt lat="45.46705" lon="5.92501">
        <ele>1903</ele>
        <time>2021-07-31T08:47:30Z</time>
      </trkpt>
      <trkpt lat="45.46713" lon="5.92496">
        <ele>1903</ele>
        <time>2021-07-31T08:47:37Z</time>
      </trkpt>
      <trkpt lat="45.4672" lon="5.9249">
        <ele>1902</ele>
        <time>2021-07-31T08:47:45Z</time>
      </trkpt>
      <trkpt lat="45.46729" lon="5.92488">
        <ele>1901</ele>
        <time>2021-07-31T08:47:53Z</time>
      </trkpt>
      <trkpt lat="45.46736" lon="5.92482">
        <ele>1901</ele>
        <time>2021-07-31T08:47:59Z</time>
      </trkpt>
      <trkpt lat="45.46738" lon="5.92477">
        <ele>1901</ele>
        <time>2021-07-31T08:51:53Z</time>
      </trkpt>
      <trkpt lat="45.46735" lon="5.92473">
        <ele>1898</ele>
        <time>2021-07-31T08:57:31Z</time>
      </trkpt>
      <trkpt lat="45.46726" lon="5.92478">
        <ele>1897</ele>
        <time>2021-07-31T08:57:42Z</time>
      </trkpt>
      <trkpt lat="45.46721" lon="5.92483">
        <ele>1898</ele>
        <time>2021-07-31T08:57:46Z</time>
      </trkpt>
      <trkpt lat="45.46705" lon="5.92494">
        <ele>1900</ele>
        <time>2021-07-31T08:58:00Z</time>
      </trkpt>
      <trkpt lat="45.467" lon="5.92499">
        <ele>1900</ele>
        <time>2021-07-31T08:58:05Z</time>
      </trkpt>
      <trkpt lat="45.46689" lon="5.925">
        <ele>1899</ele>
        <time>2021-07-31T08:58:14Z</time>
      </trkpt>
      <trkpt lat="45.46683" lon="5.92503">
        <ele>1900</ele>
        <time>2021-07-31T08:58:18Z</time>
      </trkpt>
      <trkpt lat="45.46677" lon="5.92504">
        <ele>1900</ele>
        <time>2021-07-31T08:58:24Z</time>
      </trkpt>
      <trkpt lat="45.46672" lon="5.92504">
        <ele>1900</ele>
        <time>2021-07-31T08:58:28Z</time>
      </trkpt>
      <trkpt lat="45.46665" lon="5.925">
        <ele>1900</ele>
        <time>2021-07-31T08:58:34Z</time>
      </trkpt>
      <trkpt lat="45.46656" lon="5.92504">
        <ele>1897</ele>
        <time>2021-07-31T08:58:41Z</time>
      </trkpt>
      <trkpt lat="45.46649" lon="5.92508">
        <ele>1901</ele>
        <time>2021-07-31T08:58:49Z</time>
      </trkpt>
      <trkpt lat="45.46645" lon="5.92512">
        <ele>1899</ele>
        <time>2021-07-31T08:58:54Z</time>
      </trkpt>
      <trkpt lat="45.4664" lon="5.92526">
        <ele>1907</ele>
        <time>2021-07-31T08:59:03Z</time>
      </trkpt>
      <trkpt lat="45.46636" lon="5.92531">
        <ele>1904</ele>
        <time>2021-07-31T08:59:08Z</time>
      </trkpt>
      <trkpt lat="45.46633" lon="5.92537">
        <ele>1904</ele>
        <time>2021-07-31T08:59:13Z</time>
      </trkpt>
      <trkpt lat="45.46627" lon="5.92543">
        <ele>1907</ele>
        <time>2021-07-31T08:59:24Z</time>
      </trkpt>
      <trkpt lat="45.46617" lon="5.92557">
        <ele>1910</ele>
        <time>2021-07-31T08:59:44Z</time>
      </trkpt>
      <trkpt lat="45.46608" lon="5.92566">
        <ele>1912</ele>
        <time>2021-07-31T08:59:56Z</time>
      </trkpt>
      <trkpt lat="45.46592" lon="5.9258">
        <ele>1912</ele>
        <time>2021-07-31T09:00:10Z</time>
      </trkpt>
      <trkpt lat="45.46584" lon="5.92585">
        <ele>1911</ele>
        <time>2021-07-31T09:00:14Z</time>
      </trkpt>
      <trkpt lat="45.46576" lon="5.92585">
        <ele>1910</ele>
        <time>2021-07-31T09:00:20Z</time>
      </trkpt>
      <trkpt lat="45.46571" lon="5.92582">
        <ele>1910</ele>
        <time>2021-07-31T09:00:25Z</time>
      </trkpt>
      <trkpt lat="45.46565" lon="5.92584">
        <ele>1910</ele>
        <time>2021-07-31T09:00:31Z</time>
      </trkpt>
      <trkpt lat="45.46562" lon="5.92582">
        <ele>1909</ele>
        <time>2021-07-31T09:00:35Z</time>
      </trkpt>
      <trkpt lat="45.46558" lon="5.92585">
        <ele>1909</ele>
        <time>2021-07-31T09:00:39Z</time>
      </trkpt>
      <trkpt lat="45.46552" lon="5.92587">
        <ele>1908</ele>
        <time>2021-07-31T09:00:42Z</time>
      </trkpt>
      <trkpt lat="45.46541" lon="5.92592">
        <ele>1909</ele>
        <time>2021-07-31T09:00:50Z</time>
      </trkpt>
      <trkpt lat="45.46537" lon="5.92594">
        <ele>1908</ele>
        <time>2021-07-31T09:00:53Z</time>
      </trkpt>
      <trkpt lat="45.46531" lon="5.92595">
        <ele>1908</ele>
        <time>2021-07-31T09:00:58Z</time>
      </trkpt>
      <trkpt lat="45.46517" lon="5.92597">
        <ele>1908</ele>
        <time>2021-07-31T09:01:08Z</time>
      </trkpt>
      <trkpt lat="45.46508" lon="5.92598">
        <ele>1908</ele>
        <time>2021-07-31T09:01:13Z</time>
      </trkpt>
      <trkpt lat="45.465" lon="5.92596">
        <ele>1909</ele>
        <time>2021-07-31T09:01:26Z</time>
      </trkpt>
      <trkpt lat="45.46495" lon="5.92594">
        <ele>1907</ele>
        <time>2021-07-31T09:01:32Z</time>
      </trkpt>
      <trkpt lat="45.46489" lon="5.92592">
        <ele>1908</ele>
        <time>2021-07-31T09:01:36Z</time>
      </trkpt>
      <trkpt lat="45.46481" lon="5.92592">
        <ele>1909</ele>
        <time>2021-07-31T09:01:43Z</time>
      </trkpt>
      <trkpt lat="45.46473" lon="5.92593">
        <ele>1909</ele>
        <time>2021-07-31T09:01:47Z</time>
      </trkpt>
      <trkpt lat="45.46467" lon="5.92593">
        <ele>1908</ele>
        <time>2021-07-31T09:01:51Z</time>
      </trkpt>
      <trkpt lat="45.46458" lon="5.92594">
        <ele>1911</ele>
        <time>2021-07-31T09:01:56Z</time>
      </trkpt>
      <trkpt lat="45.46452" lon="5.92595">
        <ele>1910</ele>
        <time>2021-07-31T09:02:02Z</time>
      </trkpt>
      <trkpt lat="45.46447" lon="5.926">
        <ele>1909</ele>
        <time>2021-07-31T09:02:08Z</time>
      </trkpt>
      <trkpt lat="45.46443" lon="5.92597">
        <ele>1907</ele>
        <time>2021-07-31T09:02:25Z</time>
      </trkpt>
      <trkpt lat="45.46436" lon="5.92595">
        <ele>1909</ele>
        <time>2021-07-31T09:02:30Z</time>
      </trkpt>
      <trkpt lat="45.46426" lon="5.92593">
        <ele>1909</ele>
        <time>2021-07-31T09:02:37Z</time>
      </trkpt>
      <trkpt lat="45.46421" lon="5.9259">
        <ele>1909</ele>
        <time>2021-07-31T09:02:42Z</time>
      </trkpt>
      <trkpt lat="45.46415" lon="5.92587">
        <ele>1909</ele>
        <time>2021-07-31T09:02:47Z</time>
      </trkpt>
      <trkpt lat="45.4641" lon="5.92587">
        <ele>1909</ele>
        <time>2021-07-31T09:02:52Z</time>
      </trkpt>
      <trkpt lat="45.46403" lon="5.92583">
        <ele>1909</ele>
        <time>2021-07-31T09:02:57Z</time>
      </trkpt>
      <trkpt lat="45.46397" lon="5.92579">
        <ele>1909</ele>
        <time>2021-07-31T09:03:02Z</time>
      </trkpt>
      <trkpt lat="45.4639" lon="5.92576">
        <ele>1908</ele>
        <time>2021-07-31T09:03:05Z</time>
      </trkpt>
      <trkpt lat="45.46379" lon="5.92573">
        <ele>1906</ele>
        <time>2021-07-31T09:03:10Z</time>
      </trkpt>
      <trkpt lat="45.46357" lon="5.92556">
        <ele>1900</ele>
        <time>2021-07-31T09:03:25Z</time>
      </trkpt>
      <trkpt lat="45.46353" lon="5.92549">
        <ele>1899</ele>
        <time>2021-07-31T09:03:28Z</time>
      </trkpt>
      <trkpt lat="45.46342" lon="5.92536">
        <ele>1898</ele>
        <time>2021-07-31T09:03:34Z</time>
      </trkpt>
      <trkpt lat="45.46338" lon="5.92529">
        <ele>1897</ele>
        <time>2021-07-31T09:03:37Z</time>
      </trkpt>
      <trkpt lat="45.46332" lon="5.92526">
        <ele>1896</ele>
        <time>2021-07-31T09:03:40Z</time>
      </trkpt>
      <trkpt lat="45.46324" lon="5.92523">
        <ele>1895</ele>
        <time>2021-07-31T09:03:44Z</time>
      </trkpt>
      <trkpt lat="45.46306" lon="5.92514">
        <ele>1894</ele>
        <time>2021-07-31T09:03:56Z</time>
      </trkpt>
      <trkpt lat="45.46294" lon="5.92514">
        <ele>1893</ele>
        <time>2021-07-31T09:04:03Z</time>
      </trkpt>
      <trkpt lat="45.46272" lon="5.92502">
        <ele>1892</ele>
        <time>2021-07-31T09:04:20Z</time>
      </trkpt>
      <trkpt lat="45.46266" lon="5.925">
        <ele>1892</ele>
        <time>2021-07-31T09:04:25Z</time>
      </trkpt>
      <trkpt lat="45.46247" lon="5.92485">
        <ele>1891</ele>
        <time>2021-07-31T09:04:38Z</time>
      </trkpt>
      <trkpt lat="45.46241" lon="5.92482">
        <ele>1891</ele>
        <time>2021-07-31T09:04:42Z</time>
      </trkpt>
      <trkpt lat="45.46234" lon="5.92481">
        <ele>1890</ele>
        <time>2021-07-31T09:04:45Z</time>
      </trkpt>
      <trkpt lat="45.46198" lon="5.92476">
        <ele>1892</ele>
        <time>2021-07-31T09:05:07Z</time>
      </trkpt>
      <trkpt lat="45.4618" lon="5.92471">
        <ele>1894</ele>
        <time>2021-07-31T09:05:23Z</time>
      </trkpt>
      <trkpt lat="45.46175" lon="5.92472">
        <ele>1895</ele>
        <time>2021-07-31T09:05:28Z</time>
      </trkpt>
      <trkpt lat="45.46169" lon="5.92474">
        <ele>1895</ele>
        <time>2021-07-31T09:05:33Z</time>
      </trkpt>
      <trkpt lat="45.46163" lon="5.92473">
        <ele>1895</ele>
        <time>2021-07-31T09:05:39Z</time>
      </trkpt>
      <trkpt lat="45.46157" lon="5.9247">
        <ele>1895</ele>
        <time>2021-07-31T09:05:43Z</time>
      </trkpt>
      <trkpt lat="45.4615" lon="5.92468">
        <ele>1895</ele>
        <time>2021-07-31T09:05:48Z</time>
      </trkpt>
      <trkpt lat="45.46128" lon="5.92457">
        <ele>1894</ele>
        <time>2021-07-31T09:06:04Z</time>
      </trkpt>
      <trkpt lat="45.46109" lon="5.92452">
        <ele>1893</ele>
        <time>2021-07-31T09:06:14Z</time>
      </trkpt>
      <trkpt lat="45.46089" lon="5.92442">
        <ele>1895</ele>
        <time>2021-07-31T09:06:31Z</time>
      </trkpt>
      <trkpt lat="45.46083" lon="5.92439">
        <ele>1896</ele>
        <time>2021-07-31T09:06:38Z</time>
      </trkpt>
      <trkpt lat="45.46077" lon="5.92436">
        <ele>1897</ele>
        <time>2021-07-31T09:06:46Z</time>
      </trkpt>
      <trkpt lat="45.46066" lon="5.92438">
        <ele>1896</ele>
        <time>2021-07-31T09:07:04Z</time>
      </trkpt>
      <trkpt lat="45.46059" lon="5.92435">
        <ele>1898</ele>
        <time>2021-07-31T09:07:13Z</time>
      </trkpt>
      <trkpt lat="45.46051" lon="5.92435">
        <ele>1898</ele>
        <time>2021-07-31T09:07:24Z</time>
      </trkpt>
      <trkpt lat="45.46044" lon="5.92434">
        <ele>1898</ele>
        <time>2021-07-31T09:07:29Z</time>
      </trkpt>
      <trkpt lat="45.46039" lon="5.92435">
        <ele>1897</ele>
        <time>2021-07-31T09:07:32Z</time>
      </trkpt>
      <trkpt lat="45.46033" lon="5.92439">
        <ele>1896</ele>
        <time>2021-07-31T09:07:35Z</time>
      </trkpt>
      <trkpt lat="45.46027" lon="5.92442">
        <ele>1896</ele>
        <time>2021-07-31T09:07:39Z</time>
      </trkpt>
      <trkpt lat="45.46022" lon="5.92445">
        <ele>1896</ele>
        <time>2021-07-31T09:07:44Z</time>
      </trkpt>
      <trkpt lat="45.46015" lon="5.92451">
        <ele>1894</ele>
        <time>2021-07-31T09:07:52Z</time>
      </trkpt>
      <trkpt lat="45.46013" lon="5.92445">
        <ele>1890</ele>
        <time>2021-07-31T09:08:17Z</time>
      </trkpt>
      <trkpt lat="45.46018" lon="5.92442">
        <ele>1889</ele>
        <time>2021-07-31T09:08:22Z</time>
      </trkpt>
      <trkpt lat="45.46017" lon="5.92431">
        <ele>1882</ele>
        <time>2021-07-31T09:08:39Z</time>
      </trkpt>
      <trkpt lat="45.4601" lon="5.92431">
        <ele>1879</ele>
        <time>2021-07-31T09:08:50Z</time>
      </trkpt>
      <trkpt lat="45.46004" lon="5.92435">
        <ele>1877</ele>
        <time>2021-07-31T09:08:58Z</time>
      </trkpt>
      <trkpt lat="45.45991" lon="5.92439">
        <ele>1877</ele>
        <time>2021-07-31T09:09:10Z</time>
      </trkpt>
      <trkpt lat="45.45985" lon="5.92441">
        <ele>1877</ele>
        <time>2021-07-31T09:09:21Z</time>
      </trkpt>
      <trkpt lat="45.45981" lon="5.92434">
        <ele>1877</ele>
        <time>2021-07-31T09:09:31Z</time>
      </trkpt>
      <trkpt lat="45.45971" lon="5.9243">
        <ele>1877</ele>
        <time>2021-07-31T09:09:37Z</time>
      </trkpt>
      <trkpt lat="45.4596" lon="5.92428">
        <ele>1877</ele>
        <time>2021-07-31T09:09:43Z</time>
      </trkpt>
      <trkpt lat="45.45947" lon="5.92428">
        <ele>1875</ele>
        <time>2021-07-31T09:09:52Z</time>
      </trkpt>
      <trkpt lat="45.45939" lon="5.92428">
        <ele>1870</ele>
        <time>2021-07-31T09:10:26Z</time>
      </trkpt>
      <trkpt lat="45.45933" lon="5.92428">
        <ele>1870</ele>
        <time>2021-07-31T09:10:41Z</time>
      </trkpt>
      <trkpt lat="45.45925" lon="5.92429">
        <ele>1870</ele>
        <time>2021-07-31T09:10:53Z</time>
      </trkpt>
      <trkpt lat="45.45915" lon="5.92423">
        <ele>1872</ele>
        <time>2021-07-31T09:11:06Z</time>
      </trkpt>
      <trkpt lat="45.45909" lon="5.92419">
        <ele>1871</ele>
        <time>2021-07-31T09:11:23Z</time>
      </trkpt>
      <trkpt lat="45.45907" lon="5.92408">
        <ele>1870</ele>
        <time>2021-07-31T09:11:42Z</time>
      </trkpt>
      <trkpt lat="45.4591" lon="5.92388">
        <ele>1854</ele>
        <time>2021-07-31T09:14:48Z</time>
      </trkpt>
      <trkpt lat="45.45918" lon="5.92389">
        <ele>1848</ele>
        <time>2021-07-31T09:15:59Z</time>
      </trkpt>
      <trkpt lat="45.45924" lon="5.92388">
        <ele>1842</ele>
        <time>2021-07-31T09:16:24Z</time>
      </trkpt>
      <trkpt lat="45.45929" lon="5.92384">
        <ele>1838</ele>
        <time>2021-07-31T09:16:44Z</time>
      </trkpt>
      <trkpt lat="45.45939" lon="5.92379">
        <ele>1835</ele>
        <time>2021-07-31T09:17:21Z</time>
      </trkpt>
      <trkpt lat="45.45946" lon="5.92371">
        <ele>1834</ele>
        <time>2021-07-31T09:17:43Z</time>
      </trkpt>
      <trkpt lat="45.4595" lon="5.92366">
        <ele>1834</ele>
        <time>2021-07-31T09:17:47Z</time>
      </trkpt>
      <trkpt lat="45.45963" lon="5.9237">
        <ele>1832</ele>
        <time>2021-07-31T09:17:58Z</time>
      </trkpt>
      <trkpt lat="45.4597" lon="5.9237">
        <ele>1831</ele>
        <time>2021-07-31T09:18:05Z</time>
      </trkpt>
      <trkpt lat="45.45976" lon="5.92372">
        <ele>1828</ele>
        <time>2021-07-31T09:18:18Z</time>
      </trkpt>
      <trkpt lat="45.45981" lon="5.92367">
        <ele>1825</ele>
        <time>2021-07-31T09:18:33Z</time>
      </trkpt>
      <trkpt lat="45.45993" lon="5.92368">
        <ele>1820</ele>
        <time>2021-07-31T09:18:58Z</time>
      </trkpt>
      <trkpt lat="45.46" lon="5.92362">
        <ele>1816</ele>
        <time>2021-07-31T09:19:14Z</time>
      </trkpt>
      <trkpt lat="45.46006" lon="5.9236">
        <ele>1813</ele>
        <time>2021-07-31T09:19:30Z</time>
      </trkpt>
      <trkpt lat="45.46015" lon="5.92348">
        <ele>1810</ele>
        <time>2021-07-31T09:19:41Z</time>
      </trkpt>
      <trkpt lat="45.46024" lon="5.92345">
        <ele>1811</ele>
        <time>2021-07-31T09:19:51Z</time>
      </trkpt>
      <trkpt lat="45.46031" lon="5.92347">
        <ele>1810</ele>
        <time>2021-07-31T09:20:01Z</time>
      </trkpt>
      <trkpt lat="45.46037" lon="5.92351">
        <ele>1811</ele>
        <time>2021-07-31T09:20:07Z</time>
      </trkpt>
      <trkpt lat="45.46042" lon="5.92353">
        <ele>1810</ele>
        <time>2021-07-31T09:20:12Z</time>
      </trkpt>
      <trkpt lat="45.46049" lon="5.9235">
        <ele>1810</ele>
        <time>2021-07-31T09:20:20Z</time>
      </trkpt>
      <trkpt lat="45.46061" lon="5.92346">
        <ele>1812</ele>
        <time>2021-07-31T09:20:33Z</time>
      </trkpt>
      <trkpt lat="45.46068" lon="5.92345">
        <ele>1812</ele>
        <time>2021-07-31T09:20:41Z</time>
      </trkpt>
      <trkpt lat="45.46073" lon="5.92344">
        <ele>1810</ele>
        <time>2021-07-31T09:20:58Z</time>
      </trkpt>
      <trkpt lat="45.46082" lon="5.92346">
        <ele>1812</ele>
        <time>2021-07-31T09:21:05Z</time>
      </trkpt>
      <trkpt lat="45.46087" lon="5.92344">
        <ele>1810</ele>
        <time>2021-07-31T09:21:10Z</time>
      </trkpt>
      <trkpt lat="45.46095" lon="5.9234">
        <ele>1809</ele>
        <time>2021-07-31T09:21:23Z</time>
      </trkpt>
      <trkpt lat="45.46101" lon="5.92347">
        <ele>1807</ele>
        <time>2021-07-31T09:21:31Z</time>
      </trkpt>
      <trkpt lat="45.46109" lon="5.92349">
        <ele>1807</ele>
        <time>2021-07-31T09:21:39Z</time>
      </trkpt>
      <trkpt lat="45.46114" lon="5.92306">
        <ele>1776</ele>
        <time>2021-07-31T09:24:18Z</time>
      </trkpt>
      <trkpt lat="45.46129" lon="5.92297">
        <ele>1770</ele>
        <time>2021-07-31T09:24:47Z</time>
      </trkpt>
      <trkpt lat="45.46126" lon="5.92288">
        <ele>1766</ele>
        <time>2021-07-31T09:25:02Z</time>
      </trkpt>
      <trkpt lat="45.46121" lon="5.92279">
        <ele>1763</ele>
        <time>2021-07-31T09:25:23Z</time>
      </trkpt>
      <trkpt lat="45.46118" lon="5.92275">
        <ele>1753</ele>
        <time>2021-07-31T09:26:43Z</time>
      </trkpt>
      <trkpt lat="45.46118" lon="5.92266">
        <ele>1749</ele>
        <time>2021-07-31T09:27:04Z</time>
      </trkpt>
      <trkpt lat="45.46111" lon="5.92265">
        <ele>1746</ele>
        <time>2021-07-31T09:27:19Z</time>
      </trkpt>
      <trkpt lat="45.46106" lon="5.92259">
        <ele>1743</ele>
        <time>2021-07-31T09:27:30Z</time>
      </trkpt>
      <trkpt lat="45.46105" lon="5.92254">
        <ele>1742</ele>
        <time>2021-07-31T09:27:40Z</time>
      </trkpt>
      <trkpt lat="45.46104" lon="5.92249">
        <ele>1740</ele>
        <time>2021-07-31T09:27:44Z</time>
      </trkpt>
      <trkpt lat="45.46101" lon="5.92231">
        <ele>1727</ele>
        <time>2021-07-31T09:28:28Z</time>
      </trkpt>
      <trkpt lat="45.46101" lon="5.92216">
        <ele>1726</ele>
        <time>2021-07-31T09:29:05Z</time>
      </trkpt>
      <trkpt lat="45.46099" lon="5.92196">
        <ele>1713</ele>
        <time>2021-07-31T09:29:21Z</time>
      </trkpt>
      <trkpt lat="45.461" lon="5.92188">
        <ele>1709</ele>
        <time>2021-07-31T09:29:36Z</time>
      </trkpt>
      <trkpt lat="45.46102" lon="5.92179">
        <ele>1705</ele>
        <time>2021-07-31T09:29:42Z</time>
      </trkpt>
      <trkpt lat="45.46087" lon="5.92142">
        <ele>1687</ele>
        <time>2021-07-31T09:30:08Z</time>
      </trkpt>
      <trkpt lat="45.46086" lon="5.92124">
        <ele>1684</ele>
        <time>2021-07-31T09:30:27Z</time>
      </trkpt>
      <trkpt lat="45.4609" lon="5.92113">
        <ele>1675</ele>
        <time>2021-07-31T09:30:34Z</time>
      </trkpt>
      <trkpt lat="45.46087" lon="5.92103">
        <ele>1670</ele>
        <time>2021-07-31T09:30:40Z</time>
      </trkpt>
      <trkpt lat="45.46086" lon="5.92083">
        <ele>1660</ele>
        <time>2021-07-31T09:30:59Z</time>
      </trkpt>
      <trkpt lat="45.4608" lon="5.92074">
        <ele>1652</ele>
        <time>2021-07-31T09:31:20Z</time>
      </trkpt>
      <trkpt lat="45.46077" lon="5.92062">
        <ele>1645</ele>
        <time>2021-07-31T09:31:35Z</time>
      </trkpt>
      <trkpt lat="45.4608" lon="5.92052">
        <ele>1639</ele>
        <time>2021-07-31T09:31:50Z</time>
      </trkpt>
      <trkpt lat="45.46079" lon="5.92041">
        <ele>1633</ele>
        <time>2021-07-31T09:32:10Z</time>
      </trkpt>
      <trkpt lat="45.46074" lon="5.92029">
        <ele>1629</ele>
        <time>2021-07-31T09:32:25Z</time>
      </trkpt>
      <trkpt lat="45.46077" lon="5.92018">
        <ele>1624</ele>
        <time>2021-07-31T09:32:50Z</time>
      </trkpt>
      <trkpt lat="45.46079" lon="5.92008">
        <ele>1619</ele>
        <time>2021-07-31T09:33:10Z</time>
      </trkpt>
      <trkpt lat="45.4608" lon="5.91998">
        <ele>1614</ele>
        <time>2021-07-31T09:33:30Z</time>
      </trkpt>
      <trkpt lat="45.46076" lon="5.91988">
        <ele>1610</ele>
        <time>2021-07-31T09:34:00Z</time>
      </trkpt>
      <trkpt lat="45.46083" lon="5.91984">
        <ele>1607</ele>
        <time>2021-07-31T09:34:36Z</time>
      </trkpt>
      <trkpt lat="45.4609" lon="5.91982">
        <ele>1605</ele>
        <time>2021-07-31T09:34:46Z</time>
      </trkpt>
      <trkpt lat="45.46094" lon="5.91977">
        <ele>1603</ele>
        <time>2021-07-31T09:34:56Z</time>
      </trkpt>
      <trkpt lat="45.46117" lon="5.91958">
        <ele>1590</ele>
        <time>2021-07-31T09:35:29Z</time>
      </trkpt>
      <trkpt lat="45.46136" lon="5.91938">
        <ele>1581</ele>
        <time>2021-07-31T09:35:50Z</time>
      </trkpt>
      <trkpt lat="45.46137" lon="5.91928">
        <ele>1576</ele>
        <time>2021-07-31T09:36:01Z</time>
      </trkpt>
      <trkpt lat="45.46138" lon="5.91914">
        <ele>1571</ele>
        <time>2021-07-31T09:36:12Z</time>
      </trkpt>
      <trkpt lat="45.46129" lon="5.919">
        <ele>1562</ele>
        <time>2021-07-31T09:36:29Z</time>
      </trkpt>
      <trkpt lat="45.46126" lon="5.91875">
        <ele>1553</ele>
        <time>2021-07-31T09:36:48Z</time>
      </trkpt>
      <trkpt lat="45.46123" lon="5.91865">
        <ele>1551</ele>
        <time>2021-07-31T09:36:53Z</time>
      </trkpt>
      <trkpt lat="45.46121" lon="5.91847">
        <ele>1545</ele>
        <time>2021-07-31T09:37:09Z</time>
      </trkpt>
      <trkpt lat="45.46117" lon="5.91835">
        <ele>1540</ele>
        <time>2021-07-31T09:37:20Z</time>
      </trkpt>
      <trkpt lat="45.46115" lon="5.91821">
        <ele>1531</ele>
        <time>2021-07-31T09:37:38Z</time>
      </trkpt>
      <trkpt lat="45.46112" lon="5.9181">
        <ele>1524</ele>
        <time>2021-07-31T09:37:58Z</time>
      </trkpt>
      <trkpt lat="45.46108" lon="5.91797">
        <ele>1521</ele>
        <time>2021-07-31T09:38:11Z</time>
      </trkpt>
      <trkpt lat="45.46103" lon="5.91781">
        <ele>1514</ele>
        <time>2021-07-31T09:38:33Z</time>
      </trkpt>
      <trkpt lat="45.461" lon="5.91771">
        <ele>1511</ele>
        <time>2021-07-31T09:38:40Z</time>
      </trkpt>
      <trkpt lat="45.46092" lon="5.9174">
        <ele>1499</ele>
        <time>2021-07-31T09:39:13Z</time>
      </trkpt>
      <trkpt lat="45.46084" lon="5.91705">
        <ele>1486</ele>
        <time>2021-07-31T09:39:49Z</time>
      </trkpt>
      <trkpt lat="45.4608" lon="5.91652">
        <ele>1470</ele>
        <time>2021-07-31T09:40:25Z</time>
      </trkpt>
      <trkpt lat="45.46072" lon="5.91623">
        <ele>1462</ele>
        <time>2021-07-31T09:40:47Z</time>
      </trkpt>
      <trkpt lat="45.4604" lon="5.91584">
        <ele>1447</ele>
        <time>2021-07-31T09:41:23Z</time>
      </trkpt>
      <trkpt lat="45.46017" lon="5.91559">
        <ele>1440</ele>
        <time>2021-07-31T09:41:39Z</time>
      </trkpt>
      <trkpt lat="45.46009" lon="5.91529">
        <ele>1430</ele>
        <time>2021-07-31T09:42:02Z</time>
      </trkpt>
      <trkpt lat="45.45996" lon="5.91516">
        <ele>1430</ele>
        <time>2021-07-31T09:42:15Z</time>
      </trkpt>
      <trkpt lat="45.45985" lon="5.91503">
        <ele>1425</ele>
        <time>2021-07-31T09:42:25Z</time>
      </trkpt>
      <trkpt lat="45.45995" lon="5.91492">
        <ele>1419</ele>
        <time>2021-07-31T09:43:45Z</time>
      </trkpt>
      <trkpt lat="45.46009" lon="5.91472">
        <ele>1414</ele>
        <time>2021-07-31T09:44:06Z</time>
      </trkpt>
      <trkpt lat="45.46024" lon="5.91468">
        <ele>1400</ele>
        <time>2021-07-31T09:44:48Z</time>
      </trkpt>
      <trkpt lat="45.46024" lon="5.91418">
        <ele>1385</ele>
        <time>2021-07-31T09:45:17Z</time>
      </trkpt>
      <trkpt lat="45.46028" lon="5.91377">
        <ele>1377</ele>
        <time>2021-07-31T09:45:39Z</time>
      </trkpt>
      <trkpt lat="45.46027" lon="5.91356">
        <ele>1372</ele>
        <time>2021-07-31T09:45:53Z</time>
      </trkpt>
      <trkpt lat="45.46029" lon="5.91335">
        <ele>1367</ele>
        <time>2021-07-31T09:46:05Z</time>
      </trkpt>
      <trkpt lat="45.46046" lon="5.91285">
        <ele>1349</ele>
        <time>2021-07-31T09:46:47Z</time>
      </trkpt>
      <trkpt lat="45.46046" lon="5.91263">
        <ele>1342</ele>
        <time>2021-07-31T09:47:01Z</time>
      </trkpt>
      <trkpt lat="45.46046" lon="5.91244">
        <ele>1333</ele>
        <time>2021-07-31T09:47:22Z</time>
      </trkpt>
      <trkpt lat="45.46048" lon="5.91204">
        <ele>1322</ele>
        <time>2021-07-31T09:47:51Z</time>
      </trkpt>
      <trkpt lat="45.46044" lon="5.91162">
        <ele>1313</ele>
        <time>2021-07-31T09:48:18Z</time>
      </trkpt>
      <trkpt lat="45.46042" lon="5.9114">
        <ele>1305</ele>
        <time>2021-07-31T09:48:50Z</time>
      </trkpt>
      <trkpt lat="45.46037" lon="5.91118">
        <ele>1300</ele>
        <time>2021-07-31T09:49:01Z</time>
      </trkpt>
      <trkpt lat="45.46032" lon="5.91059">
        <ele>1284</ele>
        <time>2021-07-31T09:50:19Z</time>
      </trkpt>
      <trkpt lat="45.46005" lon="5.91017">
        <ele>1276</ele>
        <time>2021-07-31T09:50:54Z</time>
      </trkpt>
      <trkpt lat="45.4599" lon="5.91006">
        <ele>1273</ele>
        <time>2021-07-31T09:51:04Z</time>
      </trkpt>
      <trkpt lat="45.45977" lon="5.90995">
        <ele>1273</ele>
        <time>2021-07-31T09:51:12Z</time>
      </trkpt>
      <trkpt lat="45.45966" lon="5.90982">
        <ele>1270</ele>
        <time>2021-07-31T09:51:23Z</time>
      </trkpt>
      <trkpt lat="45.45969" lon="5.90931">
        <ele>1260</ele>
        <time>2021-07-31T09:52:09Z</time>
      </trkpt>
      <trkpt lat="45.4597" lon="5.90889">
        <ele>1252</ele>
        <time>2021-07-31T09:52:42Z</time>
      </trkpt>
      <trkpt lat="45.45956" lon="5.90836">
        <ele>1243</ele>
        <time>2021-07-31T09:53:16Z</time>
      </trkpt>
      <trkpt lat="45.45942" lon="5.90756">
        <ele>1225</ele>
        <time>2021-07-31T09:54:06Z</time>
      </trkpt>
      <trkpt lat="45.45946" lon="5.90681">
        <ele>1208</ele>
        <time>2021-07-31T09:55:03Z</time>
      </trkpt>
      <trkpt lat="45.45942" lon="5.90625">
        <ele>1194</ele>
        <time>2021-07-31T09:55:50Z</time>
      </trkpt>
      <trkpt lat="45.45965" lon="5.90598">
        <ele>1189</ele>
        <time>2021-07-31T09:56:14Z</time>
      </trkpt>
      <trkpt lat="45.45973" lon="5.90579">
        <ele>1186</ele>
        <time>2021-07-31T09:56:24Z</time>
      </trkpt>
      <trkpt lat="45.45979" lon="5.90538">
        <ele>1178</ele>
        <time>2021-07-31T09:56:50Z</time>
      </trkpt>
      <trkpt lat="45.45979" lon="5.90518">
        <ele>1170</ele>
        <time>2021-07-31T09:57:03Z</time>
      </trkpt>
      <trkpt lat="45.46021" lon="5.90493">
        <ele>1163</ele>
        <time>2021-07-31T09:57:56Z</time>
      </trkpt>
      <trkpt lat="45.46034" lon="5.90483">
        <ele>1162</ele>
        <time>2021-07-31T09:58:08Z</time>
      </trkpt>
      <trkpt lat="45.46043" lon="5.90466">
        <ele>1159</ele>
        <time>2021-07-31T09:58:20Z</time>
      </trkpt>
      <trkpt lat="45.46057" lon="5.90464">
        <ele>1156</ele>
        <time>2021-07-31T09:58:35Z</time>
      </trkpt>
      <trkpt lat="45.46075" lon="5.90479">
        <ele>1153</ele>
        <time>2021-07-31T09:58:59Z</time>
      </trkpt>
      <trkpt lat="45.46099" lon="5.90503">
        <ele>1152</ele>
        <time>2021-07-31T09:59:26Z</time>
      </trkpt>
      <trkpt lat="45.4613" lon="5.9052">
        <ele>1146</ele>
        <time>2021-07-31T09:59:57Z</time>
      </trkpt>
      <trkpt lat="45.46185" lon="5.90528">
        <ele>1134</ele>
        <time>2021-07-31T10:00:38Z</time>
      </trkpt>
      <trkpt lat="45.4621" lon="5.90553">
        <ele>1126</ele>
        <time>2021-07-31T10:01:08Z</time>
      </trkpt>
      <trkpt lat="45.46267" lon="5.90581">
        <ele>1117</ele>
        <time>2021-07-31T10:01:49Z</time>
      </trkpt>
      <trkpt lat="45.46297" lon="5.90585">
        <ele>1110</ele>
        <time>2021-07-31T10:02:13Z</time>
      </trkpt>
      <trkpt lat="45.46326" lon="5.90605">
        <ele>1107</ele>
        <time>2021-07-31T10:02:37Z</time>
      </trkpt>
      <trkpt lat="45.46354" lon="5.90612">
        <ele>1107</ele>
        <time>2021-07-31T10:02:59Z</time>
      </trkpt>
      <trkpt lat="45.46384" lon="5.90603">
        <ele>1104</ele>
        <time>2021-07-31T10:03:22Z</time>
      </trkpt>
      <trkpt lat="45.4641" lon="5.90587">
        <ele>1102</ele>
        <time>2021-07-31T10:03:47Z</time>
      </trkpt>
      <trkpt lat="45.46413" lon="5.90541">
        <ele>1097</ele>
        <time>2021-07-31T10:06:46Z</time>
      </trkpt>
      <trkpt lat="45.46421" lon="5.90498">
        <ele>1096</ele>
        <time>2021-07-31T10:06:56Z</time>
      </trkpt>
      <trkpt lat="45.46427" lon="5.90457">
        <ele>1091</ele>
        <time>2021-07-31T10:07:04Z</time>
      </trkpt>
      <trkpt lat="45.46449" lon="5.90418">
        <ele>1087</ele>
        <time>2021-07-31T10:07:11Z</time>
      </trkpt>
      <trkpt lat="45.4647" lon="5.90381">
        <ele>1087</ele>
        <time>2021-07-31T10:07:16Z</time>
      </trkpt>
      <trkpt lat="45.46498" lon="5.90357">
        <ele>1086</ele>
        <time>2021-07-31T10:07:21Z</time>
      </trkpt>
      <trkpt lat="45.46629" lon="5.90268">
        <ele>1074</ele>
        <time>2021-07-31T10:07:36Z</time>
      </trkpt>
      <trkpt lat="45.46658" lon="5.90255">
        <ele>1071</ele>
        <time>2021-07-31T10:07:39Z</time>
      </trkpt>
      <trkpt lat="45.46686" lon="5.9025">
        <ele>1067</ele>
        <time>2021-07-31T10:07:42Z</time>
      </trkpt>
      <trkpt lat="45.46715" lon="5.90254">
        <ele>1067</ele>
        <time>2021-07-31T10:07:45Z</time>
      </trkpt>
      <trkpt lat="45.46819" lon="5.90295">
        <ele>1060</ele>
        <time>2021-07-31T10:07:55Z</time>
      </trkpt>
      <trkpt lat="45.46946" lon="5.90284">
        <ele>1054</ele>
        <time>2021-07-31T10:08:09Z</time>
      </trkpt>
      <trkpt lat="45.47008" lon="5.90293">
        <ele>1056</ele>
        <time>2021-07-31T10:08:18Z</time>
      </trkpt>
      <trkpt lat="45.50581" lon="5.92317">
        <ele>889</ele>
        <time>2021-07-31T10:15:45Z</time>
      </trkpt>
      <trkpt lat="45.50614" lon="5.9234">
        <ele>887</ele>
        <time>2021-07-31T10:15:47Z</time>
      </trkpt>
      <trkpt lat="45.50841" lon="5.92315">
        <ele>866</ele>
        <time>2021-07-31T10:16:15Z</time>
      </trkpt>
      <trkpt lat="45.50842" lon="5.92318">
        <ele>872</ele>
        <time>2021-07-31T10:16:16Z</time>
      </trkpt>
      <trkpt lat="45.5086" lon="5.92354">
        <ele>859</ele>
        <time>2021-07-31T10:16:19Z</time>
      </trkpt>
      <trkpt lat="45.50879" lon="5.92396">
        <ele>850</ele>
        <time>2021-07-31T10:16:22Z</time>
      </trkpt>
      <trkpt lat="45.50915" lon="5.9249">
        <ele>845</ele>
        <time>2021-07-31T10:16:28Z</time>
      </trkpt>
      <trkpt lat="45.50937" lon="5.92518">
        <ele>844</ele>
        <time>2021-07-31T10:16:31Z</time>
      </trkpt>
      <trkpt lat="45.51032" lon="5.9258">
        <ele>843</ele>
        <time>2021-07-31T10:16:40Z</time>
      </trkpt>
      <trkpt lat="45.51104" lon="5.9265">
        <ele>838</ele>
        <time>2021-07-31T10:16:49Z</time>
      </trkpt>
      <trkpt lat="45.51152" lon="5.92652">
        <ele>830</ele>
        <time>2021-07-31T10:16:57Z</time>
      </trkpt>
      <trkpt lat="45.51201" lon="5.92597">
        <ele>833</ele>
        <time>2021-07-31T10:17:01Z</time>
      </trkpt>
      <trkpt lat="45.5123" lon="5.92565">
        <ele>832</ele>
        <time>2021-07-31T10:17:06Z</time>
      </trkpt>
      <trkpt lat="45.51318" lon="5.92427">
        <ele>795</ele>
        <time>2021-07-31T10:17:54Z</time>
      </trkpt>
      <trkpt lat="45.51417" lon="5.92296">
        <ele>781</ele>
        <time>2021-07-31T10:18:12Z</time>
      </trkpt>
      <trkpt lat="45.53646" lon="5.92801">
        <ele>594.7</ele>
        <time>2021-07-31T10:25:00Z</time>
      </trkpt>
      <trkpt lat="45.53657" lon="5.92781">
        <ele>611</ele>
        <time>2021-07-31T10:25:01Z</time>
      </trkpt>
      <trkpt lat="45.53716" lon="5.92803">
        <ele>610</ele>
        <time>2021-07-31T10:25:07Z</time>
      </trkpt>
      <trkpt lat="45.53738" lon="5.92812">
        <ele>614</ele>
        <time>2021-07-31T10:25:09Z</time>
      </trkpt>
      <trkpt lat="45.5386" lon="5.92853">
        <ele>586</ele>
        <time>2021-07-31T10:25:20Z</time>
      </trkpt>
      <trkpt lat="45.53903" lon="5.92864">
        <ele>587</ele>
        <time>2021-07-31T10:25:23Z</time>
      </trkpt>
      <trkpt lat="45.54003" lon="5.92912">
        <ele>575</ele>
        <time>2021-07-31T10:25:33Z</time>
      </trkpt>
      <trkpt lat="45.54035" lon="5.92943">
        <ele>573</ele>
        <time>2021-07-31T10:25:37Z</time>
      </trkpt>
      <trkpt lat="45.54065" lon="5.92956">
        <ele>570</ele>
        <time>2021-07-31T10:25:40Z</time>
      </trkpt>
      <trkpt lat="45.54067" lon="5.93013">
        <ele>567</ele>
        <time>2021-07-31T10:25:43Z</time>
      </trkpt>
      <trkpt lat="45.54025" lon="5.93052">
        <ele>566</ele>
        <time>2021-07-31T10:25:51Z</time>
      </trkpt>
      <trkpt lat="45.53971" lon="5.93067">
        <ele>565</ele>
        <time>2021-07-31T10:25:55Z</time>
      </trkpt>
      <trkpt lat="45.53934" lon="5.93077">
        <ele>560</ele>
        <time>2021-07-31T10:25:57Z</time>
      </trkpt>
      <trkpt lat="45.53913" lon="5.93096">
        <ele>556</ele>
        <time>2021-07-31T10:25:59Z</time>
      </trkpt>
      <trkpt lat="45.55002" lon="5.93912">
        <ele>405</ele>
        <time>2021-07-31T10:29:12Z</time>
      </trkpt>
      <trkpt lat="45.55224" lon="5.93756">
        <ele>387</ele>
        <time>2021-07-31T10:30:10Z</time>
      </trkpt>
      <trkpt lat="45.55223" lon="5.93783">
        <ele>397</ele>
        <time>2021-07-31T10:30:14Z</time>
      </trkpt>
      <trkpt lat="45.55219" lon="5.93783">
        <ele>396</ele>
        <time>2021-07-31T10:31:44Z</time>
      </trkpt>
      <trkpt lat="45.55227" lon="5.93793">
        <ele>371</ele>
        <time>2021-08-01T18:53:08Z</time>
      </trkpt>
      <trkpt lat="45.55227" lon="5.93792">
        <ele>371</ele>
        <time>2021-08-01T18:53:12Z</time>
      </trkpt>
    </trkseg>
  </trk>
  <rte>
    <name><![CDATA[4 avr. 2019 à 23:11:12]]></name>
    <cmt><![CDATA[4 avr. 2019 à 23:11:12]]></cmt>
    <desc><![CDATA[{DC1}Heure de fin	: 
Durée totale	: 0h00:00
Moyenne globale	: -
Pente moyenne	: 0.00 %
Aire incluse	: 7.4932 ha
Détails par segments
distance  | durée    | vit.moy. | vit.max. | déniv. + | déniv -
   km     | hh:mn:ss |   km/h   |   km/h   |    m     |    m
     0.81 | 00:00:00 |      0.0 |      0.0 |        0 |        0{DC2}]]></desc>
      <rtept lat="45.60077" lon="6.18221">
        <ele>1608.6</ele>
      </rtept>
      <rtept lat="45.59468" lon="6.1822">
        <ele>1760.9</ele>
      </rtept>
      <rtept lat="45.59468" lon="6.1822">
        <ele>1760.9</ele>
      </rtept>
    </rte>
  <rte>
    <name><![CDATA[10 févr. 2019 à 15:16:12]]></name>
    <cmt><![CDATA[10 févr. 2019 à 15:16:12]]></cmt>
    <desc><![CDATA[{DC1}Heure de fin	: 00:09:21
Durée totale	: -17690439h43:48
Moyenne globale	: -
Pente moyenne	: 7.00 %
Aire incluse	: 221.0936 ha
Détails par segments
distance  | durée    | vit.moy. | vit.max. | déniv. + | déniv -
   km     | hh:mn:ss |   km/h   |   km/h   |    m     |    m
     7.48 | 00:00:00 |      0.0 |      0.0 |        0 |        0{DC2}]]></desc>
      <rtept lat="45.55203" lon="5.93805">
        <ele>376</ele>
      </rtept>
      <rtept lat="45.55177" lon="5.93873">
        <ele>369</ele>
      </rtept>
      <rtept lat="45.55176" lon="5.93942">
        <ele>367</ele>
      </rtept>
      <rtept lat="45.55105" lon="5.93942">
        <ele>367</ele>
      </rtept>
      <rtept lat="45.54993" lon="5.93908">
        <ele>371</ele>
      </rtept>
      <rtept lat="45.54929" lon="5.94099">
        <ele>370</ele>
      </rtept>
      <rtept lat="45.54908" lon="5.94204">
        <ele>367</ele>
      </rtept>
      <rtept lat="45.54991" lon="5.94287">
        <ele>365</ele>
      </rtept>
      <rtept lat="45.5506" lon="5.94384">
        <ele>361</ele>
      </rtept>
      <rtept lat="45.55147" lon="5.94384">
        <ele>357</ele>
      </rtept>
      <rtept lat="45.55129" lon="5.94607">
        <ele>358</ele>
      </rtept>
      <rtept lat="45.55029" lon="5.94809">
        <ele>355</ele>
      </rtept>
      <rtept lat="45.54884" lon="5.94886">
        <ele>346</ele>
      </rtept>
      <rtept lat="45.5477" lon="5.94931">
        <ele>342</ele>
      </rtept>
      <rtept lat="45.5468" lon="5.95004">
        <ele>339</ele>
      </rtept>
      <rtept lat="45.54596" lon="5.95133">
        <ele>340</ele>
      </rtept>
      <rtept lat="45.54446" lon="5.95195">
        <ele>343</ele>
      </rtept>
      <rtept lat="45.543" lon="5.95262">
        <ele>344</ele>
      </rtept>
      <rtept lat="45.54156" lon="5.95212">
        <ele>337</ele>
      </rtept>
      <rtept lat="45.54041" lon="5.95204">
        <ele>338</ele>
      </rtept>
      <rtept lat="45.53917" lon="5.95141">
        <ele>343</ele>
      </rtept>
      <rtept lat="45.53844" lon="5.95135">
        <ele>347</ele>
      </rtept>
      <rtept lat="45.53765" lon="5.9503">
        <ele>349</ele>
      </rtept>
      <rtept lat="45.5381" lon="5.94993">
        <ele>352</ele>
      </rtept>
      <rtept lat="45.53781" lon="5.94901">
        <ele>358</ele>
      </rtept>
      <rtept lat="45.53711" lon="5.94845">
        <ele>365</ele>
      </rtept>
      <rtept lat="45.53702" lon="5.94764">
        <ele>369</ele>
      </rtept>
      <rtept lat="45.53817" lon="5.94807">
        <ele>376</ele>
      </rtept>
      <rtept lat="45.53865" lon="5.94633">
        <ele>389</ele>
      </rtept>
      <rtept lat="45.53778" lon="5.94491">
        <ele>408</ele>
      </rtept>
      <rtept lat="45.53757" lon="5.94371">
        <ele>425</ele>
      </rtept>
      <rtept lat="45.53775" lon="5.94279">
        <ele>434</ele>
      </rtept>
      <rtept lat="45.53726" lon="5.94227">
        <ele>442</ele>
      </rtept>
      <rtept lat="45.53572" lon="5.94146">
        <ele>468</ele>
      </rtept>
      <rtept lat="45.53664" lon="5.94039">
        <ele>483</ele>
      </rtept>
      <rtept lat="45.53532" lon="5.93983">
        <ele>505</ele>
      </rtept>
      <rtept lat="45.53416" lon="5.93985">
        <ele>516</ele>
      </rtept>
      <rtept lat="45.5355" lon="5.93869">
        <ele>532</ele>
      </rtept>
      <rtept lat="45.5359" lon="5.93845">
        <ele>537</ele>
      </rtept>
      <rtept lat="45.5355" lon="5.93802">
        <ele>544</ele>
      </rtept>
      <rtept lat="45.53724" lon="5.93554">
        <ele>587</ele>
      </rtept>
      <rtept lat="45.53691" lon="5.93339">
        <ele>592</ele>
      </rtept>
      <rtept lat="45.5376" lon="5.93178">
        <ele>575</ele>
      </rtept>
      <rtept lat="45.53843" lon="5.93069">
        <ele>555</ele>
      </rtept>
      <rtept lat="45.53939" lon="5.93157">
        <ele>541</ele>
      </rtept>
      <rtept lat="45.54068" lon="5.93234">
        <ele>522</ele>
      </rtept>
      <rtept lat="45.54219" lon="5.93247">
        <ele>514</ele>
      </rtept>
      <rtept lat="45.54355" lon="5.93232">
        <ele>512</ele>
      </rtept>
      <rtept lat="45.54489" lon="5.9326">
        <ele>508</ele>
      </rtept>
      <rtept lat="45.54636" lon="5.93249">
        <ele>510</ele>
      </rtept>
      <rtept lat="45.54758" lon="5.93249">
        <ele>510</ele>
      </rtept>
      <rtept lat="45.54818" lon="5.93298">
        <ele>507</ele>
      </rtept>
      <rtept lat="45.54796" lon="5.93418">
        <ele>496</ele>
      </rtept>
      <rtept lat="45.5491" lon="5.93433">
        <ele>483</ele>
      </rtept>
      <rtept lat="45.55126" lon="5.9341">
        <ele>463</ele>
      </rtept>
      <rtept lat="45.55256" lon="5.93453">
        <ele>444</ele>
      </rtept>
      <rtept lat="45.55329" lon="5.93558">
        <ele>430</ele>
      </rtept>
      <rtept lat="45.55222" lon="5.93642">
        <ele>415</ele>
      </rtept>
      <rtept lat="45.55195" lon="5.93811">
        <ele>375</ele>
      </rtept>
    </rte>
  <rte>
    <name><![CDATA[10 févr. 2019 à 15:15:48]]></name>
    <cmt><![CDATA[10 févr. 2019 à 15:15:48]]></cmt>
    <desc><![CDATA[{DC1}Heure de fin	: 00:09:21
Durée totale	: -17690439h44:12
Moyenne globale	: -
Pente moyenne	: nan %
Aire incluse	: 0.0000 ha
Détails par segments
distance  | durée    | vit.moy. | vit.max. | déniv. + | déniv -
   km     | hh:mn:ss |   km/h   |   km/h   |    m     |    m
     0.00 | 00:00:00 |      0.0 |      0.0 |        0 |        0{DC2}]]></desc>
      <rtept lat="45.5175" lon="5.93483">
        <ele>732.3</ele>
      </rtept>
    </rte>
  <rte>
    <name><![CDATA[10 févr. 2019 à 15:06:08]]></name>
    <cmt><![CDATA[10 févr. 2019 à 15:06:08]]></cmt>
    <desc><![CDATA[{DC1}Heure de fin	: 
Durée totale	: 0h00:00
Moyenne globale	: -
Pente moyenne	: 8.03 %
Aire incluse	: 204.0794 ha
Détails par segments
distance  | durée    | vit.moy. | vit.max. | déniv. + | déniv -
   km     | hh:mn:ss |   km/h   |   km/h   |    m     |    m
    12.88 | 00:00:00 |      0.0 |      0.0 |        0 |        0{DC2}]]></desc>
      <rtept lat="45.5509" lon="5.9394">
        <ele>368</ele>
      </rtept>
      <rtept lat="45.55217" lon="5.93791">
        <ele>377</ele>
      </rtept>
    </rte>
  <rte>
    <name><![CDATA[10 févr. 2019 à 14:22:06]]></name>
    <cmt><![CDATA[10 févr. 2019 à 14:22:06]]></cmt>
    <desc><![CDATA[{DC1}Heure de fin	: 00:09:21
Durée totale	: -17690438h37:54
Moyenne globale	: -
Pente moyenne	: 5.62 %
Aire incluse	: 5.7967 ha
Détails par segments
distance  | durée    | vit.moy. | vit.max. | déniv. + | déniv -
   km     | hh:mn:ss |   km/h   |   km/h   |    m     |    m
     3.30 | 00:00:00 |      0.0 |      0.0 |        0 |        0{DC2}]]></desc>
      <rtept lat="45.55169" lon="5.93089">
        <ele>415</ele>
      </rtept>
      <rtept lat="45.5518" lon="5.93905">
        <ele>366</ele>
      </rtept>
    </rte>
  <rte>
    <name><![CDATA[10 févr. 2019 à 09:50:45]]></name>
    <cmt><![CDATA[10 févr. 2019 à 09:50:45]]></cmt>
    <desc><![CDATA[{DC1}Heure de fin	: 00:09:21
Durée totale	: -17690433h09:14
Moyenne globale	: -
Pente moyenne	: 0.00 %
Aire incluse	: 50.7119 ha
Détails par segments
distance  | durée    | vit.moy. | vit.max. | déniv. + | déniv -
   km     | hh:mn:ss |   km/h   |   km/h   |    m     |    m
     4.33 | 00:00:00 |      0.0 |      0.0 |        0 |        0{DC2}]]></desc>
      <rtept lat="45.5503" lon="5.93918">
        <ele>373.6</ele>
      </rtept>
      <rtept lat="45.55191" lon="5.93893">
        <ele>366.7</ele>
      </rtept>
    </rte>
  <rte>
    <name><![CDATA[10 févr. 2019 à 09:07:08]]></name>
    <cmt><![CDATA[10 févr. 2019 à 09:07:08]]></cmt>
    <desc><![CDATA[{DC1}Heure de fin	: 00:09:21
Durée totale	: -17690433h52:52
Moyenne globale	: -
Pente moyenne	: nan %
Aire incluse	: 0.0000 ha
Détails par segments
distance  | durée    | vit.moy. | vit.max. | déniv. + | déniv -
   km     | hh:mn:ss |   km/h   |   km/h   |    m     |    m
     0.00 | 00:00:00 |      0.0 |      0.0 |        0 |        0{DC2}]]></desc>
      <rtept lat="45.55102" lon="5.93919">
        <ele>370.1</ele>
      </rtept>
    </rte>
  <rte>
    <name><![CDATA[10 févr. 2019 à 09:02:25]]></name>
    <cmt><![CDATA[10 févr. 2019 à 09:02:25]]></cmt>
    <desc><![CDATA[{DC1}Heure de fin	: 00:09:21
Durée totale	: -17690433h57:35
Moyenne globale	: -
Pente moyenne	: nan %
Aire incluse	: 0.0000 ha
Détails par segments
distance  | durée    | vit.moy. | vit.max. | déniv. + | déniv -
   km     | hh:mn:ss |   km/h   |   km/h   |    m     |    m
     0.00 | 00:00:00 |      0.0 |      0.0 |        0 |        0{DC2}]]></desc>
      <rtept lat="45.55207" lon="5.93813">
        <ele>375.2</ele>
      </rtept>
    </rte>
  <rte>
    <name><![CDATA[10 févr. 2019 à 09:00:27]]></name>
    <cmt><![CDATA[10 févr. 2019 à 09:00:27]]></cmt>
    <desc><![CDATA[{DC1}Heure de fin	: 00:09:21
Durée totale	: -17690433h59:32
Moyenne globale	: -
Pente moyenne	: nan %
Aire incluse	: 0.0000 ha
Détails par segments
distance  | durée    | vit.moy. | vit.max. | déniv. + | déniv -
   km     | hh:mn:ss |   km/h   |   km/h   |    m     |    m
     0.00 | 00:00:00 |      0.0 |      0.0 |        0 |        0{DC2}]]></desc>
      <rtept lat="45.55244" lon="5.93858">
        <ele>366.6</ele>
      </rtept>
    </rte>
</gpx>